Time,TemperatureF,DewpointF,PressureIn,WindDirection,WindDirectionDegrees,WindSpeedMPH,WindSpeedGustMPH,Humidity,HourlyPrecipIn,Conditions,Clouds,dailyrainin,SoftwareType,DateUTC
2013-04-12 00:02:00,60.6,12.6,29.85,SW,232,0.0,0.0,15,0.00,CLR,,0.00,WeatherDisplay:10.37,2013-04-12 06:02:00,
2013-04-12 00:04:00,60.5,14.0,29.85,SW,232,0.0,0.0,16,0.00,CLR,,0.00,WeatherDisplay:10.37,2013-04-12 06:04:00,
2013-04-12 00:07:00,60.2,13.8,29.85,SSE,165,0.0,0.0,16,0.00,CLR,,0.00,WeatherDisplay:10.37,2013-04-12 06:07:00,
2013-04-12 00:09:00,60.2,13.8,29.85,SSE,165,0.0,0.0,16,0.00,CLR,,0.00,WeatherDisplay:10.37,2013-04-12 06:09:00,
2013-04-12 00:12:00,60.2,13.8,29.85,SSE,165,0.0,0.0,16,0.00,CLR,,0.00,WeatherDisplay:10.37,2013-04-12 06:12:00,
2013-04-12 00:14:00,60.0,13.6,29.85,SSE,155,0.0,0.0,16,0.00,CLR,,0.00,WeatherDisplay:10.37,2013-04-12 06:14:00,
2013-04-12 00:17:00,60.2,13.8,29.85,SW,222,1.1,0.0,16,0.00,CLR,,0.00,WeatherDisplay:10.37,2013-04-12 06:17:00,
2013-04-12 00:19:00,60.0,15.0,29.85,SW,222,0.0,0.0,17,0.00,CLR,,0.00,WeatherDisplay:10.37,2013-04-12 06:19:00,
2013-04-12 00:22:00,59.7,13.4,29.85,ENE,77,1.0,1.0,16,0.00,CLR,,0.00,WeatherDisplay:10.37,2013-04-12 06:22:00,
2013-04-12 00:24:00,59.6,14.7,29.85,East,85,1.1,0.0,17,0.00,CLR,,0.00,WeatherDisplay:10.37,2013-04-12 06:24:00,
2013-04-12 00:25:00,59.5,14.6,29.85,East,80,0.0,0.0,17,0.00,CLR,,0.00,WeatherDisplay:10.37,2013-04-12 06:25:00,
2013-04-12 00:27:00,59.2,14.3,29.85,ENE,77,0.0,0.0,17,0.00,CLR,,0.00,WeatherDisplay:10.37,2013-04-12 06:27:00,
2013-04-12 00:29:00,59.0,14.2,29.85,ENE,77,1.0,1.0,17,0.00,CLR,,0.00,WeatherDisplay:10.37,2013-04-12 06:29:00,
2013-04-12 00:30:00,59.0,14.2,29.85,East,83,1.1,1.1,17,0.00,CLR,,0.00,WeatherDisplay:10.37,2013-04-12 06:30:00,
2013-04-12 00:32:00,59.1,14.3,29.85,East,92,0.0,0.0,17,0.00,CLR,,0.00,WeatherDisplay:10.37,2013-04-12 06:32:00,
2013-04-12 00:34:00,59.3,14.4,29.85,ESE,111,1.1,1.1,17,0.00,CLR,,0.00,WeatherDisplay:10.37,2013-04-12 06:34:00,
2013-04-12 00:35:00,59.3,14.4,29.85,ESE,111,1.1,1.1,17,0.00,CLR,,0.00,WeatherDisplay:10.37,2013-04-12 06:35:00,
2013-04-12 00:37:00,59.4,14.5,29.85,ESE,111,0.0,0.0,17,0.00,CLR,,0.00,WeatherDisplay:10.37,2013-04-12 06:37:00,
2013-04-12 00:40:00,59.4,14.5,29.85,ESE,112,0.0,0.0,17,0.00,CLR,,0.00,WeatherDisplay:10.37,2013-04-12 06:40:00,
2013-04-12 00:43:00,59.3,14.4,29.85,ESE,111,0.0,0.0,17,0.00,CLR,,0.00,WeatherDisplay:10.37,2013-04-12 06:43:00,
2013-04-12 00:45:00,59.2,14.3,29.85,ESE,108,0.0,0.0,17,0.00,CLR,,0.00,WeatherDisplay:10.37,2013-04-12 06:45:00,
2013-04-12 00:48:00,59.2,14.3,29.85,ESE,107,0.0,0.0,17,0.00,CLR,,0.00,WeatherDisplay:10.37,2013-04-12 06:48:00,
2013-04-12 00:50:00,59.2,15.7,29.85,ESE,107,0.0,0.0,18,0.00,CLR,,0.00,WeatherDisplay:10.37,2013-04-12 06:50:00,
2013-04-12 00:51:00,59.1,15.6,29.85,ESE,108,0.0,0.0,18,0.00,CLR,,0.00,WeatherDisplay:10.37,2013-04-12 06:51:00,
2013-04-12 00:53:00,59.0,15.5,29.85,ESE,107,0.0,0.1,18,0.00,CLR,,0.00,WeatherDisplay:10.37,2013-04-12 06:53:00,
2013-04-12 00:55:00,58.8,15.3,29.85,South,181,1.1,1.1,18,0.00,CLR,,0.00,WeatherDisplay:10.37,2013-04-12 06:55:00,
2013-04-12 00:56:00,58.8,15.3,29.85,ESE,103,2.3,2.3,18,0.00,CLR,,0.00,WeatherDisplay:10.37,2013-04-12 06:56:00,
2013-04-12 00:58:00,59.0,15.5,29.85,East,91,2.3,2.3,18,0.00,CLR,,0.00,WeatherDisplay:10.37,2013-04-12 06:58:00,
2013-04-12 01:00:00,59.2,14.3,29.85,East,82,1.1,0.0,17,0.00,CLR,,0.00,WeatherDisplay:10.37,2013-04-12 07:00:00,
2013-04-12 01:01:00,59.3,14.4,29.85,East,82,0.0,0.0,17,0.00,CLR,,0.00,WeatherDisplay:10.37,2013-04-12 07:01:00,
2013-04-12 01:03:00,59.4,14.5,29.85,East,82,0.0,0.0,17,0.00,CLR,,0.00,WeatherDisplay:10.37,2013-04-12 07:03:00,
2013-04-12 01:05:00,59.3,14.4,29.85,East,82,0.0,0.0,17,0.00,CLR,,0.00,WeatherDisplay:10.37,2013-04-12 07:05:00,
2013-04-12 01:06:00,59.2,15.7,29.85,ENE,63,1.0,1.0,18,0.00,CLR,,0.00,WeatherDisplay:10.37,2013-04-12 07:06:00,
2013-04-12 01:08:00,59.0,15.5,29.85,NE,56,1.1,1.1,18,0.00,CLR,,0.00,WeatherDisplay:10.37,2013-04-12 07:08:00,
2013-04-12 01:10:00,58.8,15.3,29.85,NE,50,2.3,2.3,18,0.00,CLR,,0.00,WeatherDisplay:10.37,2013-04-12 07:10:00,
2013-04-12 01:11:00,58.8,15.3,29.85,NE,53,2.3,2.3,18,0.00,CLR,,0.00,WeatherDisplay:10.37,2013-04-12 07:11:00,
2013-04-12 01:12:00,58.8,15.3,29.85,NE,54,2.3,2.3,18,0.00,CLR,,0.00,WeatherDisplay:10.37,2013-04-12 07:12:00,
2013-04-12 01:13:00,58.7,15.2,29.85,NE,56,2.3,2.3,18,0.00,CLR,,0.00,WeatherDisplay:10.37,2013-04-12 07:13:00,
2013-04-12 01:16:00,58.5,15.1,29.85,NE,55,0.0,0.0,18,0.00,CLR,,0.00,WeatherDisplay:10.37,2013-04-12 07:16:00,
2013-04-12 01:17:00,58.4,15.0,29.85,WSW,238,0.0,0.0,18,0.00,CLR,,0.00,WeatherDisplay:10.37,2013-04-12 07:17:00,
2013-04-12 01:18:00,58.2,14.8,29.85,ESE,108,0.0,0.0,18,0.00,CLR,,0.00,WeatherDisplay:10.37,2013-04-12 07:18:00,
2013-04-12 01:21:00,58.0,15.9,29.85,ESE,108,0.0,0.0,19,0.00,CLR,,0.00,WeatherDisplay:10.37,2013-04-12 07:21:00,
2013-04-12 01:22:00,58.0,15.9,29.85,ESE,108,0.0,0.0,19,0.00,CLR,,0.00,WeatherDisplay:10.37,2013-04-12 07:22:00,
2013-04-12 01:23:00,58.0,15.9,29.85,ESE,108,1.1,0.0,19,0.00,CLR,,0.00,WeatherDisplay:10.37,2013-04-12 07:23:00,
2013-04-12 01:26:00,58.0,14.7,29.85,ESE,108,1.1,0.0,18,0.00,CLR,,0.00,WeatherDisplay:10.37,2013-04-12 07:26:00,
2013-04-12 01:27:00,58.0,14.7,29.85,ESE,108,0.0,0.0,18,0.00,CLR,,0.00,WeatherDisplay:10.37,2013-04-12 07:27:00,
2013-04-12 01:28:00,58.1,14.8,29.85,ESE,108,0.0,0.0,18,0.00,CLR,,0.00,WeatherDisplay:10.37,2013-04-12 07:28:00,
2013-04-12 01:29:00,58.1,14.8,29.85,ESE,108,0.0,0.0,18,0.00,CLR,,0.00,WeatherDisplay:10.37,2013-04-12 07:29:00,
2013-04-12 01:31:00,58.1,14.8,29.85,ESE,106,0.0,0.0,18,0.00,CLR,,0.00,WeatherDisplay:10.37,2013-04-12 07:31:00,
2013-04-12 01:32:00,58.0,14.7,29.85,ESE,106,0.0,0.0,18,0.00,CLR,,0.00,WeatherDisplay:10.37,2013-04-12 07:32:00,
2013-04-12 01:33:00,57.9,15.8,29.85,ESE,105,0.0,0.0,19,0.00,CLR,,0.00,WeatherDisplay:10.37,2013-04-12 07:33:00,
2013-04-12 01:34:00,57.8,15.7,29.85,ESE,105,0.0,0.0,19,0.00,CLR,,0.00,WeatherDisplay:10.37,2013-04-12 07:34:00,
2013-04-12 01:36:00,57.5,15.5,29.85,East,96,1.1,1.1,19,0.00,CLR,,0.00,WeatherDisplay:10.37,2013-04-12 07:36:00,
2013-04-12 01:37:00,57.5,15.5,29.85,East,101,1.1,1.1,19,0.00,CLR,,0.00,WeatherDisplay:10.37,2013-04-12 07:37:00,
2013-04-12 01:38:00,57.6,15.6,29.85,ESE,102,1.1,0.0,19,0.00,CLR,,0.00,WeatherDisplay:10.37,2013-04-12 07:38:00,
2013-04-12 01:39:00,57.6,15.6,29.85,ESE,106,2.0,2.0,19,0.00,CLR,,0.00,WeatherDisplay:10.37,2013-04-12 07:39:00,
2013-04-12 01:41:00,57.9,15.8,29.85,East,101,2.3,2.3,19,0.00,CLR,,0.00,WeatherDisplay:10.37,2013-04-12 07:41:00,
2013-04-12 01:42:00,58.0,15.9,29.85,ESE,105,1.1,1.1,19,0.00,CLR,,0.00,WeatherDisplay:10.37,2013-04-12 07:42:00,
2013-04-12 01:43:00,58.1,16.0,29.85,East,99,0.0,2.0,19,0.00,CLR,,0.00,WeatherDisplay:10.37,2013-04-12 07:43:00,
2013-04-12 01:44:00,58.2,16.1,29.85,ESE,111,1.1,1.1,19,0.00,CLR,,0.00,WeatherDisplay:10.37,2013-04-12 07:44:00,
2013-04-12 01:46:00,58.4,16.2,29.85,ESE,111,2.3,2.3,19,0.00,CLR,,0.00,WeatherDisplay:10.37,2013-04-12 07:46:00,
2013-04-12 01:47:00,58.5,15.1,29.85,ESE,111,1.1,0.0,18,0.00,CLR,,0.00,WeatherDisplay:10.37,2013-04-12 07:47:00,
2013-04-12 01:48:00,58.5,15.1,29.85,ESE,107,0.0,2.0,18,0.00,CLR,,0.00,WeatherDisplay:10.37,2013-04-12 07:48:00,
2013-04-12 01:49:00,58.5,15.1,29.85,East,98,1.1,1.1,18,0.00,CLR,,0.00,WeatherDisplay:10.37,2013-04-12 07:49:00,
2013-04-12 01:51:00,58.6,15.2,29.85,ESE,115,1.1,1.1,18,0.00,CLR,,0.00,WeatherDisplay:10.37,2013-04-12 07:51:00,
2013-04-12 01:53:00,58.7,15.2,29.85,East,83,1.1,1.1,18,0.00,CLR,,0.00,WeatherDisplay:10.37,2013-04-12 07:53:00,
2013-04-12 01:54:00,58.7,15.2,29.85,ESE,104,1.1,1.1,18,0.00,CLR,,0.00,WeatherDisplay:10.37,2013-04-12 07:54:00,
2013-04-12 01:56:00,58.7,15.2,29.85,East,89,0.0,0.0,18,0.00,CLR,,0.00,WeatherDisplay:10.37,2013-04-12 07:56:00,
2013-04-12 01:58:00,58.6,15.2,29.85,East,87,1.1,1.1,18,0.00,CLR,,0.00,WeatherDisplay:10.37,2013-04-12 07:58:00,
2013-04-12 01:59:00,58.5,16.3,29.85,East,82,1.1,1.1,19,0.00,CLR,,0.00,WeatherDisplay:10.37,2013-04-12 07:59:00,
2013-04-12 02:01:00,58.5,15.1,29.85,East,89,1.1,1.1,18,0.00,CLR,,0.00,WeatherDisplay:10.37,2013-04-12 08:01:00,
2013-04-12 02:03:00,58.6,15.2,29.84,ENE,61,1.1,1.1,18,0.00,CLR,,0.00,WeatherDisplay:10.37,2013-04-12 08:03:00,
2013-04-12 02:04:00,58.5,15.1,29.84,ENE,63,1.1,1.1,18,0.00,CLR,,0.00,WeatherDisplay:10.37,2013-04-12 08:04:00,
2013-04-12 02:07:00,58.2,16.1,29.84,NE,56,1.1,1.1,19,0.00,CLR,,0.00,WeatherDisplay:10.37,2013-04-12 08:07:00,
2013-04-12 02:08:00,57.9,15.8,29.84,NE,44,2.3,2.3,19,0.00,CLR,,0.00,WeatherDisplay:10.37,2013-04-12 08:08:00,
2013-04-12 02:09:00,57.8,15.7,29.84,NE,50,2.3,2.3,19,0.00,CLR,,0.00,WeatherDisplay:10.37,2013-04-12 08:09:00,
2013-04-12 02:10:00,57.8,15.7,29.84,NE,49,2.3,2.3,19,0.00,CLR,,0.00,WeatherDisplay:10.37,2013-04-12 08:10:00,
2013-04-12 02:12:00,57.5,15.5,29.84,NE,44,2.3,2.3,19,0.00,CLR,,0.00,WeatherDisplay:10.37,2013-04-12 08:12:00,
2013-04-12 02:13:00,57.4,15.4,29.84,NE,46,2.3,2.3,19,0.00,CLR,,0.00,WeatherDisplay:10.37,2013-04-12 08:13:00,
2013-04-12 02:14:00,57.3,15.3,29.84,East,89,2.3,2.3,19,0.00,CLR,,0.00,WeatherDisplay:10.37,2013-04-12 08:14:00,
2013-04-12 02:15:00,57.2,15.2,29.85,NE,48,2.3,2.3,19,0.00,CLR,,0.00,WeatherDisplay:10.37,2013-04-12 08:15:00,
2013-04-12 02:17:00,57.2,15.2,29.84,NE,56,2.3,2.3,19,0.00,CLR,,0.00,WeatherDisplay:10.37,2013-04-12 08:17:00,
2013-04-12 02:18:00,57.1,15.2,29.84,NE,53,2.3,2.3,19,0.00,CLR,,0.00,WeatherDisplay:10.37,2013-04-12 08:18:00,
2013-04-12 02:20:00,57.0,15.1,29.84,ENE,58,1.1,1.1,19,0.00,CLR,,0.00,WeatherDisplay:10.37,2013-04-12 08:20:00,
2013-04-12 02:22:00,56.9,15.0,29.84,NE,56,1.1,1.1,19,0.00,CLR,,0.00,WeatherDisplay:10.37,2013-04-12 08:22:00,
2013-04-12 02:24:00,56.7,14.8,29.85,ENE,65,3.4,3.4,19,0.00,CLR,,0.00,WeatherDisplay:10.37,2013-04-12 08:24:00,
2013-04-12 02:25:00,56.7,14.8,29.85,NE,50,3.4,3.4,19,0.00,CLR,,0.00,WeatherDisplay:10.37,2013-04-12 08:25:00,
2013-04-12 02:27:00,56.6,14.8,29.85,ENE,60,1.1,0.0,19,0.00,CLR,,0.00,WeatherDisplay:10.37,2013-04-12 08:27:00,
2013-04-12 02:28:00,56.5,15.8,29.84,East,79,1.1,1.1,20,0.00,CLR,,0.00,WeatherDisplay:10.37,2013-04-12 08:28:00,
2013-04-12 02:30:00,56.5,15.8,29.84,ENE,77,0.0,0.1,20,0.00,CLR,,0.00,WeatherDisplay:10.37,2013-04-12 08:30:00,
2013-04-12 02:32:00,56.5,14.7,29.85,East,84,0.0,0.0,19,0.00,CLR,,0.00,WeatherDisplay:10.37,2013-04-12 08:32:00,
2013-04-12 02:34:00,56.5,15.8,29.84,NE,47,1.1,1.1,20,0.00,CLR,,0.00,WeatherDisplay:10.37,2013-04-12 08:34:00,
2013-04-12 02:35:00,56.4,15.8,29.84,NE,47,1.1,1.1,20,0.00,CLR,,0.00,WeatherDisplay:10.37,2013-04-12 08:35:00,
2013-04-12 02:36:00,56.4,15.8,29.84,NE,46,1.1,1.1,20,0.00,CLR,,0.00,WeatherDisplay:10.37,2013-04-12 08:36:00,
2013-04-12 02:37:00,56.3,15.7,29.84,NE,47,1.1,0.0,20,0.00,CLR,,0.00,WeatherDisplay:10.37,2013-04-12 08:37:00,
2013-04-12 02:39:00,56.4,14.6,29.84,NE,52,2.3,2.3,19,0.00,CLR,,0.00,WeatherDisplay:10.37,2013-04-12 08:39:00,
2013-04-12 02:41:00,56.5,14.7,29.85,NE,53,1.1,1.1,19,0.00,CLR,,0.00,WeatherDisplay:10.37,2013-04-12 08:41:00,
2013-04-12 02:42:00,56.7,14.8,29.85,ENE,60,2.0,2.0,19,0.00,CLR,,0.00,WeatherDisplay:10.37,2013-04-12 08:42:00,
2013-04-12 02:44:00,56.8,14.9,29.84,NE,52,2.3,2.3,19,0.00,CLR,,0.00,WeatherDisplay:10.37,2013-04-12 08:44:00,
2013-04-12 02:45:00,56.9,15.0,29.84,NE,55,2.3,2.3,19,0.00,CLR,,0.00,WeatherDisplay:10.37,2013-04-12 08:45:00,
2013-04-12 02:46:00,56.9,15.0,29.84,NE,56,2.3,2.3,19,0.00,CLR,,0.00,WeatherDisplay:10.37,2013-04-12 08:46:00,
2013-04-12 02:47:00,57.0,15.1,29.84,ENE,61,1.1,1.1,19,0.00,CLR,,0.00,WeatherDisplay:10.37,2013-04-12 08:47:00,
2013-04-12 02:49:00,56.9,15.0,29.84,NE,53,1.1,1.1,19,0.00,CLR,,0.00,WeatherDisplay:10.37,2013-04-12 08:49:00,
2013-04-12 02:51:00,56.9,15.0,29.85,NE,50,2.3,2.3,19,0.00,CLR,,0.00,WeatherDisplay:10.37,2013-04-12 08:51:00,
2013-04-12 02:52:00,56.9,15.0,29.85,NE,48,2.0,2.0,19,0.00,CLR,,0.00,WeatherDisplay:10.37,2013-04-12 08:52:00,
2013-04-12 02:55:00,56.8,14.9,29.85,ENE,58,2.3,2.3,19,0.00,CLR,,0.00,WeatherDisplay:10.37,2013-04-12 08:55:00,
2013-04-12 02:56:00,56.8,14.9,29.85,ENE,58,3.4,3.4,19,0.00,CLR,,0.00,WeatherDisplay:10.37,2013-04-12 08:56:00,
2013-04-12 02:57:00,56.9,15.0,29.85,NE,43,3.4,3.4,19,0.00,CLR,,0.00,WeatherDisplay:10.37,2013-04-12 08:57:00,
2013-04-12 03:00:00,56.9,15.0,29.84,NE,40,3.4,3.4,19,0.00,CLR,,0.00,WeatherDisplay:10.37,2013-04-12 09:00:00,
2013-04-12 03:01:00,56.8,14.9,29.84,NE,53,3.4,3.4,19,0.00,CLR,,0.00,WeatherDisplay:10.37,2013-04-12 09:01:00,
2013-04-12 03:03:00,56.7,14.8,29.84,NE,49,3.4,3.4,19,0.00,CLR,,0.00,WeatherDisplay:10.37,2013-04-12 09:03:00,
2013-04-12 03:05:00,56.8,14.9,29.84,NE,43,3.4,3.4,19,0.00,CLR,,0.00,WeatherDisplay:10.37,2013-04-12 09:05:00,
2013-04-12 03:06:00,56.8,14.9,29.84,NE,36,3.4,3.4,19,0.00,CLR,,0.00,WeatherDisplay:10.37,2013-04-12 09:06:00,
2013-04-12 03:08:00,56.9,15.0,29.84,NE,43,3.4,3.4,19,0.00,CLR,,0.00,WeatherDisplay:10.37,2013-04-12 09:08:00,
2013-04-12 03:11:00,56.7,14.8,29.84,NE,47,3.4,3.4,19,0.00,CLR,,0.00,WeatherDisplay:10.37,2013-04-12 09:11:00,
2013-04-12 03:13:00,56.7,14.8,29.84,NE,36,2.3,2.3,19,0.00,CLR,,0.00,WeatherDisplay:10.37,2013-04-12 09:13:00,
2013-04-12 03:16:00,56.7,14.8,29.84,NE,55,2.3,2.3,19,0.00,CLR,,0.00,WeatherDisplay:10.37,2013-04-12 09:16:00,
2013-04-12 03:17:00,56.7,14.8,29.84,ENE,58,2.3,2.3,19,0.00,CLR,,0.00,WeatherDisplay:10.37,2013-04-12 09:17:00,
2013-04-12 03:18:00,56.7,14.8,29.84,NE,55,2.3,2.3,19,0.00,CLR,,0.00,WeatherDisplay:10.37,2013-04-12 09:18:00,
2013-04-12 03:21:00,56.5,15.8,29.84,ENE,60,1.1,1.1,20,0.00,CLR,,0.00,WeatherDisplay:10.37,2013-04-12 09:21:00,
2013-04-12 03:22:00,56.5,15.8,29.85,ENE,59,1.1,1.1,20,0.00,CLR,,0.00,WeatherDisplay:10.37,2013-04-12 09:22:00,
2013-04-12 03:23:00,56.3,15.7,29.84,NE,54,0.0,0.0,20,0.00,CLR,,0.00,WeatherDisplay:10.37,2013-04-12 09:23:00,
2013-04-12 03:26:00,55.8,15.3,29.84,NE,54,0.0,0.0,20,0.00,CLR,,0.00,WeatherDisplay:10.37,2013-04-12 09:26:00,
2013-04-12 03:27:00,55.7,15.2,29.85,NE,54,0.0,0.0,20,0.00,CLR,,0.00,WeatherDisplay:10.37,2013-04-12 09:27:00,
2013-04-12 03:28:00,55.7,15.2,29.84,NE,54,0.0,0.0,20,0.00,CLR,,0.00,WeatherDisplay:10.37,2013-04-12 09:28:00,
2013-04-12 03:31:00,55.5,15.0,29.84,NE,54,0.0,0.0,20,0.00,CLR,,0.00,WeatherDisplay:10.37,2013-04-12 09:31:00,
2013-04-12 03:32:00,55.5,15.0,29.84,NE,54,0.0,0.0,20,0.00,CLR,,0.00,WeatherDisplay:10.37,2013-04-12 09:32:00,
2013-04-12 03:33:00,55.5,15.0,29.84,NE,54,0.0,0.0,20,0.00,CLR,,0.00,WeatherDisplay:10.37,2013-04-12 09:33:00,
2013-04-12 03:37:00,55.1,14.7,29.84,NE,54,1.1,1.1,20,0.00,CLR,,0.00,WeatherDisplay:10.37,2013-04-12 09:37:00,
2013-04-12 03:38:00,55.0,14.6,29.85,NE,53,0.0,0.0,20,0.00,CLR,,0.00,WeatherDisplay:10.37,2013-04-12 09:38:00,
2013-04-12 03:42:00,55.0,14.6,29.84,NE,53,1.1,0.0,20,0.00,CLR,,0.00,WeatherDisplay:10.37,2013-04-12 09:42:00,
2013-04-12 03:43:00,55.0,15.7,29.85,NE,54,0.0,0.0,21,0.00,CLR,,0.00,WeatherDisplay:10.37,2013-04-12 09:43:00,
2013-04-12 03:47:00,55.0,14.6,29.85,NE,54,0.0,0.0,20,0.00,CLR,,0.00,WeatherDisplay:10.37,2013-04-12 09:47:00,
2013-04-12 03:48:00,55.0,14.6,29.85,NE,53,0.0,0.0,20,0.00,CLR,,0.00,WeatherDisplay:10.37,2013-04-12 09:48:00,
2013-04-12 03:52:00,55.3,14.8,29.85,NE,54,0.0,0.0,20,0.00,CLR,,0.00,WeatherDisplay:10.37,2013-04-12 09:52:00,
2013-04-12 03:53:00,55.3,14.8,29.85,NE,53,0.0,0.0,20,0.00,CLR,,0.00,WeatherDisplay:10.37,2013-04-12 09:53:00,
2013-04-12 03:58:00,55.5,15.0,29.85,East,79,1.1,1.1,20,0.00,CLR,,0.00,WeatherDisplay:10.37,2013-04-12 09:58:00,
2013-04-12 03:59:00,55.4,14.9,29.85,East,79,1.1,0.0,20,0.00,CLR,,0.00,WeatherDisplay:10.37,2013-04-12 09:59:00,
2013-04-12 04:03:00,55.3,14.8,29.85,NE,48,1.1,1.1,20,0.00,CLR,,0.00,WeatherDisplay:10.37,2013-04-12 10:03:00,
2013-04-12 04:04:00,55.2,14.8,29.85,NE,49,3.4,3.4,20,0.00,CLR,,0.00,WeatherDisplay:10.37,2013-04-12 10:04:00,
2013-04-12 04:08:00,54.9,14.5,29.85,NE,48,1.1,1.1,20,0.00,CLR,,0.00,WeatherDisplay:10.37,2013-04-12 10:08:00,
2013-04-12 04:09:00,54.9,14.5,29.85,NE,49,0.0,0.0,20,0.00,CLR,,0.00,WeatherDisplay:10.37,2013-04-12 10:09:00,
2013-04-12 04:13:00,54.6,15.4,29.85,ENE,65,1.1,0.0,21,0.00,CLR,,0.00,WeatherDisplay:10.37,2013-04-12 10:13:00,
2013-04-12 04:14:00,54.5,15.3,29.85,ENE,65,0.0,0.0,21,0.00,CLR,,0.00,WeatherDisplay:10.37,2013-04-12 10:14:00,
2013-04-12 04:15:00,54.4,15.2,29.85,ENE,65,0.0,0.0,21,0.00,CLR,,0.00,WeatherDisplay:10.37,2013-04-12 10:15:00,
2013-04-12 04:18:00,54.0,16.0,29.85,ENE,65,0.0,0.0,22,0.00,CLR,,0.00,WeatherDisplay:10.37,2013-04-12 10:18:00,
2013-04-12 04:19:00,53.9,15.9,29.85,ENE,65,1.1,0.0,22,0.00,CLR,,0.00,WeatherDisplay:10.37,2013-04-12 10:19:00,
2013-04-12 04:20:00,53.8,15.8,29.85,ENE,65,0.0,0.0,22,0.00,CLR,,0.00,WeatherDisplay:10.37,2013-04-12 10:20:00,
2013-04-12 04:23:00,54.0,14.9,29.86,East,79,1.1,1.1,21,0.00,CLR,,0.00,WeatherDisplay:10.37,2013-04-12 10:23:00,
2013-04-12 04:25:00,54.1,15.0,29.86,East,79,0.0,0.0,21,0.00,CLR,,0.00,WeatherDisplay:10.37,2013-04-12 10:25:00,
2013-04-12 04:28:00,54.1,15.0,29.86,East,79,0.0,0.0,21,0.00,CLR,,0.00,WeatherDisplay:10.37,2013-04-12 10:28:00,
2013-04-12 04:30:00,54.1,15.0,29.86,ENE,77,1.1,1.1,21,0.00,CLR,,0.00,WeatherDisplay:10.37,2013-04-12 10:30:00,
2013-04-12 04:34:00,54.5,15.3,29.86,ENE,77,1.1,1.1,21,0.00,CLR,,0.00,WeatherDisplay:10.37,2013-04-12 10:34:00,
2013-04-12 04:35:00,54.5,15.3,29.86,ENE,77,1.1,0.0,21,0.00,CLR,,0.00,WeatherDisplay:10.37,2013-04-12 10:35:00,
2013-04-12 04:36:00,54.4,15.2,29.85,ENE,77,1.1,1.1,21,0.00,CLR,,0.00,WeatherDisplay:10.37,2013-04-12 10:36:00,
2013-04-12 04:39:00,54.3,16.2,29.85,NE,46,2.3,2.3,22,0.00,CLR,,0.00,WeatherDisplay:10.37,2013-04-12 10:39:00,
2013-04-12 04:40:00,54.2,15.1,29.85,NE,53,2.3,2.3,21,0.00,CLR,,0.00,WeatherDisplay:10.37,2013-04-12 10:40:00,
2013-04-12 04:41:00,54.2,15.1,29.86,NE,53,1.1,0.0,21,0.00,CLR,,0.00,WeatherDisplay:10.37,2013-04-12 10:41:00,
2013-04-12 04:44:00,54.0,16.0,29.86,NE,53,0.0,0.0,22,0.00,CLR,,0.00,WeatherDisplay:10.37,2013-04-12 10:44:00,
2013-04-12 04:45:00,54.0,16.0,29.86,NE,53,0.0,0.0,22,0.00,CLR,,0.00,WeatherDisplay:10.37,2013-04-12 10:45:00,
2013-04-12 04:46:00,53.9,15.9,29.86,NE,53,0.0,0.0,22,0.00,CLR,,0.00,WeatherDisplay:10.37,2013-04-12 10:46:00,
2013-04-12 04:49:00,53.8,15.8,29.86,NE,52,0.0,0.0,22,0.00,CLR,,0.00,WeatherDisplay:10.37,2013-04-12 10:49:00,
2013-04-12 04:50:00,53.8,16.8,29.86,NE,52,0.0,0.0,23,0.00,CLR,,0.00,WeatherDisplay:10.37,2013-04-12 10:50:00,
2013-04-12 04:51:00,53.7,15.7,29.86,ENE,58,0.0,0.1,22,0.00,CLR,,0.00,WeatherDisplay:10.37,2013-04-12 10:51:00,
2013-04-12 04:54:00,53.7,15.7,29.86,ESE,113,1.1,0.0,22,0.00,CLR,,0.00,WeatherDisplay:10.37,2013-04-12 10:54:00,
2013-04-12 04:55:00,53.8,15.8,29.86,ESE,113,0.0,0.0,22,0.00,CLR,,0.00,WeatherDisplay:10.37,2013-04-12 10:55:00,
2013-04-12 04:56:00,53.8,15.8,29.86,ESE,113,0.0,0.0,22,0.00,CLR,,0.00,WeatherDisplay:10.37,2013-04-12 10:56:00,
2013-04-12 04:59:00,53.8,15.8,29.86,ESE,113,0.0,0.0,22,0.00,CLR,,0.00,WeatherDisplay:10.37,2013-04-12 10:59:00,
2013-04-12 05:00:00,53.8,15.8,29.86,ESE,113,0.0,0.0,22,0.00,CLR,,0.00,WeatherDisplay:10.37,2013-04-12 11:00:00,
2013-04-12 05:01:00,53.8,15.8,29.86,ESE,113,0.0,0.0,22,0.00,CLR,,0.00,WeatherDisplay:10.37,2013-04-12 11:01:00,
2013-04-12 05:04:00,53.8,15.8,29.86,ESE,113,0.0,0.0,22,0.00,CLR,,0.00,WeatherDisplay:10.37,2013-04-12 11:04:00,
2013-04-12 05:05:00,53.9,15.9,29.86,ESE,113,0.0,0.0,22,0.00,CLR,,0.00,WeatherDisplay:10.37,2013-04-12 11:05:00,
2013-04-12 05:06:00,53.9,15.9,29.86,ESE,113,0.0,0.0,22,0.00,CLR,,0.00,WeatherDisplay:10.37,2013-04-12 11:06:00,
2013-04-12 05:09:00,54.1,16.0,29.86,ESE,112,0.0,0.0,22,0.00,CLR,,0.00,WeatherDisplay:10.37,2013-04-12 11:09:00,
2013-04-12 05:10:00,54.2,16.1,29.86,ESE,111,0.0,0.0,22,0.00,CLR,,0.00,WeatherDisplay:10.37,2013-04-12 11:10:00,
2013-04-12 05:11:00,54.2,16.1,29.86,ESE,111,0.0,0.0,22,0.00,CLR,,0.00,WeatherDisplay:10.37,2013-04-12 11:11:00,
2013-04-12 05:12:00,54.3,16.2,29.86,ESE,110,1.1,1.1,22,0.00,CLR,,0.00,WeatherDisplay:10.37,2013-04-12 11:12:00,
2013-04-12 05:14:00,54.3,16.2,29.86,ESE,108,1.1,0.0,22,0.00,CLR,,0.00,WeatherDisplay:10.37,2013-04-12 11:14:00,
2013-04-12 05:16:00,54.2,16.1,29.86,ESE,108,0.0,0.0,22,0.00,CLR,,0.00,WeatherDisplay:10.37,2013-04-12 11:16:00,
2013-04-12 05:17:00,54.2,16.1,29.86,ESE,108,0.0,0.0,22,0.00,CLR,,0.00,WeatherDisplay:10.37,2013-04-12 11:17:00,
2013-04-12 05:20:00,54.1,16.0,29.86,ESE,108,0.0,0.0,22,0.00,CLR,,0.00,WeatherDisplay:10.37,2013-04-12 11:20:00,
2013-04-12 05:21:00,54.0,17.0,29.86,ESE,108,0.0,0.0,23,0.00,CLR,,0.00,WeatherDisplay:10.37,2013-04-12 11:21:00,
2013-04-12 05:22:00,54.0,16.0,29.86,ESE,108,0.0,0.0,22,0.00,CLR,,0.00,WeatherDisplay:10.37,2013-04-12 11:22:00,
2013-04-12 05:25:00,53.8,16.8,29.86,ESE,108,0.0,0.0,23,0.00,CLR,,0.00,WeatherDisplay:10.37,2013-04-12 11:25:00,
2013-04-12 05:26:00,53.8,16.8,29.86,ESE,108,0.0,0.0,23,0.00,CLR,,0.00,WeatherDisplay:10.37,2013-04-12 11:26:00,
2013-04-12 05:27:00,53.7,16.7,29.86,ESE,108,0.0,0.0,23,0.00,CLR,,0.00,WeatherDisplay:10.37,2013-04-12 11:27:00,
2013-04-12 05:30:00,53.7,15.7,29.86,ESE,108,0.0,0.0,22,0.00,CLR,,0.00,WeatherDisplay:10.37,2013-04-12 11:30:00,
2013-04-12 05:31:00,53.7,16.7,29.86,ESE,108,0.0,0.0,23,0.00,CLR,,0.00,WeatherDisplay:10.37,2013-04-12 11:31:00,
2013-04-12 05:32:00,53.7,16.7,29.86,ESE,108,0.0,0.0,23,0.00,CLR,,0.00,WeatherDisplay:10.37,2013-04-12 11:32:00,
2013-04-12 05:35:00,53.6,16.6,29.86,ESE,108,0.0,0.0,23,0.00,CLR,,0.00,WeatherDisplay:10.37,2013-04-12 11:35:00,
2013-04-12 05:36:00,53.5,16.6,29.87,ESE,108,0.0,0.0,23,0.00,CLR,,0.00,WeatherDisplay:10.37,2013-04-12 11:36:00,
2013-04-12 05:37:00,53.4,16.5,29.86,ESE,108,0.0,0.0,23,0.00,CLR,,0.00,WeatherDisplay:10.37,2013-04-12 11:37:00,
2013-04-12 05:40:00,53.2,17.3,29.86,ESE,109,0.0,0.0,24,0.00,CLR,,0.00,WeatherDisplay:10.37,2013-04-12 11:40:00,
2013-04-12 05:41:00,53.2,16.3,29.86,ESE,108,0.0,0.0,23,0.00,CLR,,0.00,WeatherDisplay:10.37,2013-04-12 11:41:00,
2013-04-12 05:42:00,53.2,17.3,29.87,ESE,108,0.0,0.0,24,0.00,CLR,,0.00,WeatherDisplay:10.37,2013-04-12 11:42:00,
2013-04-12 05:45:00,53.1,17.2,29.87,ESE,108,0.0,0.0,24,0.00,CLR,,0.00,WeatherDisplay:10.37,2013-04-12 11:45:00,
2013-04-12 05:47:00,53.3,16.4,29.87,East,88,1.1,1.1,23,0.00,CLR,,0.00,WeatherDisplay:10.37,2013-04-12 11:47:00,
2013-04-12 05:48:00,53.3,16.4,29.87,ESE,110,1.1,1.1,23,0.00,CLR,,0.00,WeatherDisplay:10.37,2013-04-12 11:48:00,
2013-04-12 05:50:00,53.7,16.7,29.87,East,92,1.1,1.1,23,0.00,CLR,,0.00,WeatherDisplay:10.37,2013-04-12 11:50:00,
2013-04-12 05:52:00,53.9,16.9,29.87,East,92,0.0,0.0,23,0.00,CLR,,0.00,WeatherDisplay:10.37,2013-04-12 11:52:00,
2013-04-12 05:53:00,53.9,16.9,29.87,East,92,0.0,0.0,23,0.00,CLR,,0.00,WeatherDisplay:10.37,2013-04-12 11:53:00,
2013-04-12 05:55:00,54.0,17.0,29.87,East,91,1.1,0.0,23,0.00,CLR,,0.00,WeatherDisplay:10.37,2013-04-12 11:55:00,
2013-04-12 05:58:00,54.1,17.1,29.87,ENE,77,0.0,0.0,23,0.00,CLR,,0.00,WeatherDisplay:10.37,2013-04-12 11:58:00,
2013-04-12 06:00:00,54.2,17.1,29.87,ENE,77,0.0,0.0,23,0.00,CLR,,0.00,WeatherDisplay:10.37,2013-04-12 12:00:00,
2013-04-12 06:03:00,54.2,17.1,29.87,ENE,77,0.0,0.0,23,0.00,CLR,,0.00,WeatherDisplay:10.37,2013-04-12 12:03:00,
2013-04-12 06:07:00,54.4,17.3,29.87,ENE,77,2.3,2.3,23,0.00,CLR,,0.00,WeatherDisplay:10.37,2013-04-12 12:07:00,
2013-04-12 06:08:00,54.4,17.3,29.87,ENE,70,1.1,1.1,23,0.00,CLR,,0.00,WeatherDisplay:10.37,2013-04-12 12:08:00,
2013-04-12 06:12:00,54.4,16.3,29.87,NE,48,0.0,0.0,22,0.00,CLR,,0.00,WeatherDisplay:10.37,2013-04-12 12:12:00,
2013-04-12 06:13:00,54.4,16.3,29.87,NE,48,0.0,0.0,22,0.00,CLR,,0.00,WeatherDisplay:10.37,2013-04-12 12:13:00,
2013-04-12 06:14:00,54.5,17.4,29.87,NE,56,0.0,0.0,23,0.00,CLR,,0.00,WeatherDisplay:10.37,2013-04-12 12:14:00,
2013-04-12 06:17:00,54.4,18.3,29.87,ENE,57,0.0,0.0,24,0.00,CLR,,0.00,WeatherDisplay:10.37,2013-04-12 12:17:00,
2013-04-12 06:18:00,54.3,18.2,29.87,ENE,57,0.0,0.0,24,0.00,CLR,,0.00,WeatherDisplay:10.37,2013-04-12 12:18:00,
2013-04-12 06:19:00,54.3,17.2,29.87,NE,56,0.0,0.0,23,0.00,CLR,,0.00,WeatherDisplay:10.37,2013-04-12 12:19:00,
2013-04-12 06:22:00,54.2,18.1,29.87,NE,56,0.0,0.0,24,0.00,CLR,,0.00,WeatherDisplay:10.37,2013-04-12 12:22:00,
2013-04-12 06:23:00,54.2,18.1,29.87,NE,56,0.0,0.0,24,0.00,CLR,,0.00,WeatherDisplay:10.37,2013-04-12 12:23:00,
2013-04-12 06:24:00,54.1,18.1,29.87,NE,56,0.0,0.0,24,0.00,CLR,,0.00,WeatherDisplay:10.37,2013-04-12 12:24:00,
2013-04-12 06:27:00,54.1,18.1,29.88,NE,56,0.0,0.0,24,0.00,CLR,,0.00,WeatherDisplay:10.37,2013-04-12 12:27:00,
2013-04-12 06:28:00,54.1,18.1,29.87,East,97,0.0,0.0,24,0.00,CLR,,0.00,WeatherDisplay:10.37,2013-04-12 12:28:00,
2013-04-12 06:29:00,54.1,18.1,29.87,East,96,1.1,1.1,24,0.00,CLR,,0.00,WeatherDisplay:10.37,2013-04-12 12:29:00,
2013-04-12 06:32:00,54.1,18.1,29.87,East,101,0.0,0.0,24,0.00,CLR,,0.00,WeatherDisplay:10.37,2013-04-12 12:32:00,
2013-04-12 06:33:00,54.2,18.1,29.88,East,101,1.1,0.0,24,0.00,CLR,,0.00,WeatherDisplay:10.37,2013-04-12 12:33:00,
2013-04-12 06:34:00,54.2,18.1,29.87,East,101,1.1,1.1,24,0.00,CLR,,0.00,WeatherDisplay:10.37,2013-04-12 12:34:00,
2013-04-12 06:37:00,54.3,18.2,29.88,ESE,117,1.1,0.0,24,0.00,CLR,,0.00,WeatherDisplay:10.37,2013-04-12 12:37:00,
2013-04-12 06:38:00,54.4,18.3,29.88,ESE,104,0.0,0.2,24,0.00,CLR,,0.00,WeatherDisplay:10.37,2013-04-12 12:38:00,
2013-04-12 06:39:00,54.4,18.3,29.88,East,91,1.1,1.1,24,0.00,CLR,,0.00,WeatherDisplay:10.37,2013-04-12 12:39:00,
2013-04-12 06:42:00,54.6,18.5,29.88,East,87,1.1,1.1,24,0.00,CLR,,0.00,WeatherDisplay:10.37,2013-04-12 12:42:00,
2013-04-12 06:43:00,54.6,18.5,29.88,ESE,111,1.1,1.1,24,0.00,CLR,,0.00,WeatherDisplay:10.37,2013-04-12 12:43:00,
2013-04-12 06:44:00,54.6,18.5,29.88,ESE,111,1.1,0.0,24,0.00,CLR,,0.00,WeatherDisplay:10.37,2013-04-12 12:44:00,
2013-04-12 06:45:00,54.6,18.5,29.88,ESE,111,1.1,0.0,24,0.00,CLR,,0.00,WeatherDisplay:10.37,2013-04-12 12:45:00,
2013-04-12 06:48:00,54.6,18.5,29.88,ESE,111,1.1,0.0,24,0.00,CLR,,0.00,WeatherDisplay:10.37,2013-04-12 12:48:00,
2013-04-12 06:50:00,54.5,19.3,29.88,ESE,111,0.0,0.0,25,0.00,CLR,,0.00,WeatherDisplay:10.37,2013-04-12 12:50:00,
2013-04-12 06:53:00,54.5,18.4,29.88,ESE,111,1.1,0.0,24,0.00,CLR,,0.00,WeatherDisplay:10.37,2013-04-12 12:53:00,
2013-04-12 06:54:00,54.5,18.4,29.88,ESE,112,0.0,0.0,24,0.00,CLR,,0.00,WeatherDisplay:10.37,2013-04-12 12:54:00,
2013-04-12 06:55:00,54.6,18.5,29.88,ESE,111,1.1,0.0,24,0.00,CLR,,0.00,WeatherDisplay:10.37,2013-04-12 12:55:00,
2013-04-12 06:58:00,54.9,18.7,29.88,ESE,110,0.0,0.0,24,0.00,CLR,,0.00,WeatherDisplay:10.37,2013-04-12 12:58:00,
2013-04-12 06:59:00,54.9,18.7,29.88,ESE,110,0.0,0.0,24,0.00,CLR,,0.00,WeatherDisplay:10.37,2013-04-12 12:59:00,
2013-04-12 07:00:00,54.9,18.7,29.88,ESE,110,0.0,0.0,24,0.00,CLR,,0.00,WeatherDisplay:10.37,2013-04-12 13:00:00,
2013-04-12 07:03:00,55.0,18.8,29.88,ESE,110,0.0,0.0,24,0.00,CLR,,0.00,WeatherDisplay:10.37,2013-04-12 13:03:00,
2013-04-12 07:04:00,54.9,18.7,29.88,ESE,110,0.0,0.0,24,0.00,CLR,,0.00,WeatherDisplay:10.37,2013-04-12 13:04:00,
2013-04-12 07:05:00,54.9,18.7,29.88,NE,41,1.1,1.1,24,0.00,CLR,,0.00,WeatherDisplay:10.37,2013-04-12 13:05:00,
2013-04-12 07:06:00,54.9,18.7,29.88,NE,41,2.3,2.3,24,0.00,CLR,,0.00,WeatherDisplay:10.37,2013-04-12 13:06:00,
2013-04-12 07:09:00,54.8,18.6,29.88,NE,46,0.0,0.0,24,0.00,CLR,,0.00,WeatherDisplay:10.37,2013-04-12 13:09:00,
2013-04-12 07:10:00,54.8,18.6,29.89,NE,47,0.0,0.0,24,0.00,CLR,,0.00,WeatherDisplay:10.37,2013-04-12 13:10:00,
2013-04-12 07:11:00,54.8,18.6,29.89,NE,46,1.1,1.1,24,0.00,CLR,,0.00,WeatherDisplay:10.37,2013-04-12 13:11:00,
2013-04-12 07:14:00,54.7,18.6,29.89,NE,46,1.1,0.0,24,0.00,CLR,,0.00,WeatherDisplay:10.37,2013-04-12 13:14:00,
2013-04-12 07:15:00,54.7,18.6,29.89,NE,47,0.0,0.1,24,0.00,CLR,,0.00,WeatherDisplay:10.37,2013-04-12 13:15:00,
2013-04-12 07:16:00,54.7,18.6,29.89,NE,47,1.1,1.1,24,0.00,CLR,,0.00,WeatherDisplay:10.37,2013-04-12 13:16:00,
2013-04-12 07:19:00,54.8,19.6,29.89,NE,50,2.3,2.3,25,0.00,CLR,,0.00,WeatherDisplay:10.37,2013-04-12 13:19:00,
2013-04-12 07:21:00,54.8,19.6,29.89,NE,48,2.3,2.3,25,0.00,CLR,,0.00,WeatherDisplay:10.37,2013-04-12 13:21:00,
2013-04-12 07:24:00,55.0,18.8,29.89,NE,48,2.3,2.3,24,0.00,CLR,,0.00,WeatherDisplay:10.37,2013-04-12 13:24:00,
2013-04-12 07:26:00,55.2,19.0,29.89,NE,48,2.3,2.3,24,0.00,CLR,,0.00,WeatherDisplay:10.37,2013-04-12 13:26:00,
2013-04-12 07:29:00,55.4,19.2,29.89,NE,52,2.3,2.3,24,0.00,CLR,,0.00,WeatherDisplay:10.37,2013-04-12 13:29:00,
2013-04-12 07:30:00,55.4,19.2,29.89,NE,52,2.3,2.3,24,0.00,CLR,,0.00,WeatherDisplay:10.37,2013-04-12 13:30:00,
2013-04-12 07:31:00,55.5,19.2,29.89,ENE,63,2.3,2.3,24,0.00,CLR,,0.00,WeatherDisplay:10.37,2013-04-12 13:31:00,
2013-04-12 07:34:00,55.6,20.3,29.89,NE,54,2.3,2.3,25,0.00,CLR,,0.00,WeatherDisplay:10.37,2013-04-12 13:34:00,
2013-04-12 07:35:00,55.6,19.3,29.89,NE,53,3.4,3.4,24,0.00,CLR,,0.00,WeatherDisplay:10.37,2013-04-12 13:35:00,
2013-04-12 07:36:00,55.7,19.4,29.89,NE,53,2.3,2.3,24,0.00,CLR,,0.00,WeatherDisplay:10.37,2013-04-12 13:36:00,
2013-04-12 07:39:00,55.8,19.5,29.89,NE,53,1.1,1.1,24,0.00,CLR,,0.00,WeatherDisplay:10.37,2013-04-12 13:39:00,
2013-04-12 07:40:00,55.9,19.6,29.89,NE,52,1.1,1.1,24,0.00,CLR,,0.00,WeatherDisplay:10.37,2013-04-12 13:40:00,
2013-04-12 07:41:00,56.0,19.7,29.89,East,82,2.0,2.0,24,0.00,CLR,,0.00,WeatherDisplay:10.37,2013-04-12 13:41:00,
2013-04-12 07:42:00,56.0,20.6,29.89,East,82,2.3,2.3,25,0.00,CLR,,0.00,WeatherDisplay:10.37,2013-04-12 13:42:00,
2013-04-12 07:44:00,56.1,20.7,29.89,ENE,58,1.1,1.1,25,0.00,CLR,,0.00,WeatherDisplay:10.37,2013-04-12 13:44:00,
2013-04-12 07:45:00,56.1,20.7,29.89,NE,53,2.3,2.3,25,0.00,CLR,,0.00,WeatherDisplay:10.37,2013-04-12 13:45:00,
2013-04-12 07:46:00,56.2,20.8,29.89,NE,53,1.1,0.0,25,0.00,CLR,,0.00,WeatherDisplay:10.37,2013-04-12 13:46:00,
2013-04-12 07:47:00,56.3,20.9,29.89,NE,53,1.1,0.0,25,0.00,CLR,,0.00,WeatherDisplay:10.37,2013-04-12 13:47:00,
2013-04-12 07:49:00,56.7,21.2,29.89,NE,53,1.1,1.1,25,0.00,CLR,,0.00,WeatherDisplay:10.37,2013-04-12 13:49:00,
2013-04-12 07:50:00,56.8,21.3,29.89,NE,53,1.1,1.1,25,0.00,CLR,,0.00,WeatherDisplay:10.37,2013-04-12 13:50:00,
2013-04-12 07:52:00,57.2,21.6,29.89,NE,52,0.0,0.0,25,0.00,CLR,,0.00,WeatherDisplay:10.37,2013-04-12 13:52:00,
2013-04-12 07:54:00,57.8,21.2,29.89,North,354,1.1,1.1,24,0.00,CLR,,0.00,WeatherDisplay:10.37,2013-04-12 13:54:00,
2013-04-12 07:55:00,57.9,21.3,29.89,North,354,1.1,1.1,24,0.00,CLR,,0.00,WeatherDisplay:10.37,2013-04-12 13:55:00,
2013-04-12 07:57:00,58.2,20.5,29.89,North,354,1.1,0.0,23,0.00,CLR,,0.00,WeatherDisplay:10.37,2013-04-12 13:57:00,
2013-04-12 07:59:00,58.9,20.1,29.89,North,354,0.0,0.0,22,0.00,CLR,,0.00,WeatherDisplay:10.37,2013-04-12 13:59:00,
2013-04-12 08:00:00,59.2,21.4,29.89,North,354,0.0,0.0,23,0.00,CLR,,0.00,WeatherDisplay:10.37,2013-04-12 14:00:00,
2013-04-12 08:02:00,59.9,20.9,29.89,North,354,0.0,0.0,22,0.00,CLR,,0.00,WeatherDisplay:10.37,2013-04-12 14:02:00,
2013-04-12 08:04:00,60.4,20.2,29.89,North,354,0.0,0.0,21,0.00,CLR,,0.00,WeatherDisplay:10.37,2013-04-12 14:04:00,
2013-04-12 08:05:00,60.5,20.3,29.89,North,354,0.0,0.0,21,0.00,CLR,,0.00,WeatherDisplay:10.37,2013-04-12 14:05:00,
2013-04-12 08:07:00,60.6,20.4,29.89,North,354,1.1,1.1,21,0.00,CLR,,0.00,WeatherDisplay:10.37,2013-04-12 14:07:00,
2013-04-12 08:08:00,60.7,20.5,29.89,North,354,1.1,0.0,21,0.00,CLR,,0.00,WeatherDisplay:10.37,2013-04-12 14:08:00,
2013-04-12 08:09:00,60.8,19.4,29.90,North,354,1.1,1.1,20,0.00,CLR,,0.00,WeatherDisplay:10.37,2013-04-12 14:09:00,
2013-04-12 08:10:00,60.9,19.5,29.90,North,354,0.0,0.0,20,0.00,CLR,,0.00,WeatherDisplay:10.37,2013-04-12 14:10:00,
2013-04-12 08:12:00,61.1,19.7,29.90,North,354,1.1,0.0,20,0.00,CLR,,0.00,WeatherDisplay:10.37,2013-04-12 14:12:00,
2013-04-12 08:13:00,61.2,19.8,29.90,North,354,0.0,0.0,20,0.00,CLR,,0.00,WeatherDisplay:10.37,2013-04-12 14:13:00,
2013-04-12 08:15:00,61.4,21.1,29.90,NNW,331,1.1,1.1,21,0.00,CLR,,0.00,WeatherDisplay:10.37,2013-04-12 14:15:00,
2013-04-12 08:16:00,61.4,19.9,29.90,NNW,331,1.1,1.1,20,0.00,CLR,,0.00,WeatherDisplay:10.37,2013-04-12 14:16:00,
2013-04-12 08:17:00,61.3,19.8,29.90,West,274,1.1,1.1,20,0.00,CLR,,0.00,WeatherDisplay:10.37,2013-04-12 14:17:00,
2013-04-12 08:18:00,61.3,19.8,29.90,WSW,239,1.1,0.0,20,0.00,CLR,,0.00,WeatherDisplay:10.37,2013-04-12 14:18:00,
2013-04-12 08:20:00,61.3,19.8,29.90,SW,217,3.4,3.4,20,0.00,CLR,,0.00,WeatherDisplay:10.37,2013-04-12 14:20:00,
2013-04-12 08:21:00,61.3,21.0,29.90,SE,138,2.3,0.0,21,0.00,CLR,,0.00,WeatherDisplay:10.37,2013-04-12 14:21:00,
2013-04-12 08:22:00,61.5,21.2,29.90,SW,236,1.1,1.1,21,0.00,CLR,,0.00,WeatherDisplay:10.37,2013-04-12 14:22:00,
2013-04-12 08:23:00,61.5,21.2,29.90,WSW,240,1.1,1.1,21,0.00,CLR,,0.00,WeatherDisplay:10.37,2013-04-12 14:23:00,
2013-04-12 08:25:00,61.6,21.2,29.89,SW,236,1.1,0.0,21,0.00,CLR,,0.00,WeatherDisplay:10.37,2013-04-12 14:25:00,
2013-04-12 08:26:00,61.7,21.3,29.90,WSW,238,0.0,0.0,21,0.00,CLR,,0.00,WeatherDisplay:10.37,2013-04-12 14:26:00,
2013-04-12 08:27:00,61.9,21.5,29.90,SW,228,1.1,0.0,21,0.00,CLR,,0.00,WeatherDisplay:10.37,2013-04-12 14:27:00,
2013-04-12 08:29:00,62.1,21.7,29.90,SW,226,0.0,0.0,21,0.00,CLR,,0.00,WeatherDisplay:10.37,2013-04-12 14:29:00,
2013-04-12 08:30:00,62.3,21.8,29.90,WNW,294,3.4,3.4,21,0.00,CLR,,0.00,WeatherDisplay:10.37,2013-04-12 14:30:00,
2013-04-12 08:31:00,62.4,20.8,29.90,WSW,249,3.4,3.4,20,0.00,CLR,,0.00,WeatherDisplay:10.37,2013-04-12 14:31:00,
2013-04-12 08:33:00,62.6,20.9,29.90,SW,225,1.1,0.0,20,0.00,CLR,,0.00,WeatherDisplay:10.37,2013-04-12 14:33:00,
2013-04-12 08:34:00,62.7,21.0,29.90,SSW,204,2.3,2.3,20,0.00,CLR,,0.00,WeatherDisplay:10.37,2013-04-12 14:34:00,
2013-04-12 08:35:00,62.9,22.3,29.90,SE,142,1.1,1.1,21,0.00,CLR,,0.00,WeatherDisplay:10.37,2013-04-12 14:35:00,
2013-04-12 08:36:00,62.9,22.3,29.90,SW,226,1.1,0.0,21,0.00,CLR,,0.00,WeatherDisplay:10.37,2013-04-12 14:36:00,
2013-04-12 08:38:00,63.0,22.4,29.90,SSW,194,2.3,2.3,21,0.00,CLR,,0.00,WeatherDisplay:10.37,2013-04-12 14:38:00,
2013-04-12 08:39:00,63.1,22.5,29.90,SW,228,2.0,2.0,21,0.00,CLR,,0.00,WeatherDisplay:10.37,2013-04-12 14:39:00,
2013-04-12 08:41:00,63.0,21.2,29.90,SW,226,2.3,2.3,20,0.00,CLR,,0.00,WeatherDisplay:10.37,2013-04-12 14:41:00,
2013-04-12 08:43:00,62.5,20.8,29.90,SSW,198,3.4,3.4,20,0.00,CLR,,0.00,WeatherDisplay:10.37,2013-04-12 14:43:00,
2013-04-12 08:44:00,62.2,21.7,29.91,West,270,3.4,3.4,21,0.00,CLR,,0.00,WeatherDisplay:10.37,2013-04-12 14:44:00,
2013-04-12 08:46:00,62.0,21.6,29.91,West,270,0.0,0.0,21,0.00,CLR,,0.00,WeatherDisplay:10.37,2013-04-12 14:46:00,
2013-04-12 08:47:00,61.9,21.5,29.91,SE,125,1.1,1.1,21,0.00,CLR,,0.00,WeatherDisplay:10.37,2013-04-12 14:47:00,
2013-04-12 08:48:00,61.8,21.4,29.91,SW,226,1.1,1.1,21,0.00,CLR,,0.00,WeatherDisplay:10.37,2013-04-12 14:48:00,
2013-04-12 08:49:00,61.8,21.4,29.91,SW,229,2.3,2.3,21,0.00,CLR,,0.00,WeatherDisplay:10.37,2013-04-12 14:49:00,
2013-04-12 08:51:00,61.7,21.3,29.91,SW,225,2.0,2.0,21,0.00,CLR,,0.00,WeatherDisplay:10.37,2013-04-12 14:51:00,
2013-04-12 08:52:00,61.7,21.3,29.91,WSW,250,2.3,2.3,21,0.00,CLR,,0.00,WeatherDisplay:10.37,2013-04-12 14:52:00,
2013-04-12 08:53:00,61.6,21.2,29.91,WSW,256,2.3,2.3,21,0.00,CLR,,0.00,WeatherDisplay:10.37,2013-04-12 14:53:00,
2013-04-12 08:54:00,61.6,21.2,29.91,SW,221,2.0,2.0,21,0.00,CLR,,0.00,WeatherDisplay:10.37,2013-04-12 14:54:00,
2013-04-12 08:56:00,61.4,21.1,29.91,SE,146,2.3,2.3,21,0.00,CLR,,0.00,WeatherDisplay:10.37,2013-04-12 14:56:00,
2013-04-12 08:57:00,61.5,21.2,29.91,South,187,1.1,0.0,21,0.00,CLR,,0.00,WeatherDisplay:10.37,2013-04-12 14:57:00,
2013-04-12 08:58:00,61.6,21.2,29.91,SE,134,2.3,2.3,21,0.00,CLR,,0.00,WeatherDisplay:10.37,2013-04-12 14:58:00,
2013-04-12 08:59:00,61.6,21.2,29.91,SSE,150,1.1,1.1,21,0.00,CLR,,0.00,WeatherDisplay:10.37,2013-04-12 14:59:00,
2013-04-12 09:01:00,61.8,21.4,29.91,WSW,257,1.0,1.0,21,0.00,CLR,,0.00,WeatherDisplay:10.37,2013-04-12 15:01:00,
2013-04-12 09:02:00,61.9,21.5,29.91,WNW,293,1.1,1.2,21,0.00,CLR,,0.00,WeatherDisplay:10.37,2013-04-12 15:02:00,
2013-04-12 09:03:00,61.8,21.4,29.91,SSW,197,1.0,2.0,21,0.00,CLR,,0.00,WeatherDisplay:10.37,2013-04-12 15:03:00,
2013-04-12 09:04:00,61.8,21.4,29.91,West,268,1.1,1.1,21,0.00,CLR,,0.00,WeatherDisplay:10.37,2013-04-12 15:04:00,
2013-04-12 09:07:00,61.6,20.1,29.91,SW,225,1.1,0.0,20,0.00,CLR,,0.00,WeatherDisplay:10.37,2013-04-12 15:07:00,
2013-04-12 09:09:00,61.6,21.2,29.91,South,184,3.4,3.4,21,0.00,CLR,,0.00,WeatherDisplay:10.37,2013-04-12 15:09:00,
2013-04-12 09:12:00,61.7,20.2,29.91,WSW,242,1.0,0.0,20,0.00,CLR,,0.00,WeatherDisplay:10.37,2013-04-12 15:12:00,
2013-04-12 09:13:00,61.8,20.3,29.91,WSW,245,1.1,1.1,20,0.00,CLR,,0.00,WeatherDisplay:10.37,2013-04-12 15:13:00,
2013-04-12 09:14:00,62.0,20.4,29.91,WSW,252,1.1,1.1,20,0.00,CLR,,0.00,WeatherDisplay:10.37,2013-04-12 15:14:00,
2013-04-12 09:17:00,62.0,20.4,29.91,ESE,113,2.3,0.0,20,0.00,CLR,,0.00,WeatherDisplay:10.37,2013-04-12 15:17:00,
2013-04-12 09:18:00,62.1,20.5,29.91,ESE,113,0.0,0.0,20,0.00,CLR,,0.00,WeatherDisplay:10.37,2013-04-12 15:18:00,
2013-04-12 09:19:00,62.2,19.4,29.91,SSE,160,0.0,0.0,19,0.00,CLR,,0.00,WeatherDisplay:10.37,2013-04-12 15:19:00,
2013-04-12 09:20:00,62.2,19.4,29.91,WSW,252,0.0,0.0,19,0.00,CLR,,0.00,WeatherDisplay:10.37,2013-04-12 15:20:00,
2013-04-12 09:22:00,62.4,20.8,29.91,WSW,245,1.1,1.1,20,0.00,CLR,,0.00,WeatherDisplay:10.37,2013-04-12 15:22:00,
2013-04-12 09:23:00,62.4,20.8,29.91,WSW,245,1.1,1.1,20,0.00,CLR,,0.00,WeatherDisplay:10.37,2013-04-12 15:23:00,
2013-04-12 09:24:00,62.4,20.8,29.91,WSW,253,1.1,0.0,20,0.00,CLR,,0.00,WeatherDisplay:10.37,2013-04-12 15:24:00,
2013-04-12 09:25:00,62.4,20.8,29.91,WSW,253,0.0,0.0,20,0.00,CLR,,0.00,WeatherDisplay:10.37,2013-04-12 15:25:00,
2013-04-12 09:27:00,62.9,21.2,29.91,SW,217,3.0,3.0,20,0.00,CLR,,0.00,WeatherDisplay:10.37,2013-04-12 15:27:00,
2013-04-12 09:28:00,62.9,20.0,29.91,SW,232,3.4,3.4,19,0.00,CLR,,0.00,WeatherDisplay:10.37,2013-04-12 15:28:00,
2013-04-12 09:29:00,62.9,20.0,29.91,West,274,3.4,3.4,19,0.00,CLR,,0.00,WeatherDisplay:10.37,2013-04-12 15:29:00,
2013-04-12 09:30:00,62.9,20.0,29.91,West,277,1.1,1.1,19,0.00,CLR,,0.00,WeatherDisplay:10.37,2013-04-12 15:30:00,
2013-04-12 09:32:00,62.8,19.9,29.91,West,281,3.4,3.4,19,0.00,CLR,,0.00,WeatherDisplay:10.37,2013-04-12 15:32:00,
2013-04-12 09:33:00,62.8,21.1,29.91,WNW,283,3.4,3.4,20,0.00,CLR,,0.00,WeatherDisplay:10.37,2013-04-12 15:33:00,
2013-04-12 09:34:00,62.9,21.2,29.91,WSW,240,3.4,3.4,20,0.00,CLR,,0.00,WeatherDisplay:10.37,2013-04-12 15:34:00,
2013-04-12 09:35:00,62.9,21.2,29.91,WSW,241,3.4,3.4,20,0.00,CLR,,0.00,WeatherDisplay:10.37,2013-04-12 15:35:00,
2013-04-12 09:38:00,63.3,21.5,29.91,WSW,240,2.3,2.3,20,0.00,CLR,,0.00,WeatherDisplay:10.37,2013-04-12 15:38:00,
2013-04-12 09:39:00,63.5,21.7,29.91,SW,222,3.0,3.0,20,0.00,CLR,,0.00,WeatherDisplay:10.37,2013-04-12 15:39:00,
2013-04-12 09:40:00,63.5,20.5,29.91,WSW,244,3.4,3.4,19,0.00,CLR,,0.00,WeatherDisplay:10.37,2013-04-12 15:40:00,
2013-04-12 09:43:00,63.8,20.7,29.91,SSW,211,1.0,1.0,19,0.00,CLR,,0.00,WeatherDisplay:10.37,2013-04-12 15:43:00,
2013-04-12 09:44:00,64.0,20.9,29.91,WSW,243,1.1,1.1,19,0.00,CLR,,0.00,WeatherDisplay:10.37,2013-04-12 15:44:00,
2013-04-12 09:45:00,64.1,20.9,29.91,WSW,253,2.3,2.3,19,0.00,CLR,,0.00,WeatherDisplay:10.37,2013-04-12 15:45:00,
2013-04-12 09:48:00,64.3,21.1,29.91,West,274,2.3,2.3,19,0.00,CLR,,0.00,WeatherDisplay:10.37,2013-04-12 15:48:00,
2013-04-12 09:50:00,64.1,19.7,29.91,WNW,295,3.4,3.4,18,0.00,CLR,,0.00,WeatherDisplay:10.37,2013-04-12 15:50:00,
2013-04-12 09:53:00,63.8,20.7,29.91,WSW,245,1.1,0.0,19,0.00,CLR,,0.00,WeatherDisplay:10.37,2013-04-12 15:53:00,
2013-04-12 09:54:00,63.9,20.8,29.91,SW,224,1.1,1.1,19,0.00,CLR,,0.00,WeatherDisplay:10.37,2013-04-12 15:54:00,
2013-04-12 09:55:00,64.1,20.9,29.91,WSW,245,0.0,0.0,19,0.00,CLR,,0.00,WeatherDisplay:10.37,2013-04-12 15:55:00,
2013-04-12 09:56:00,64.3,21.1,29.91,West,274,0.0,0.0,19,0.00,CLR,,0.00,WeatherDisplay:10.37,2013-04-12 15:56:00,
2013-04-12 09:58:00,64.5,20.0,29.91,SW,235,2.3,2.3,18,0.00,CLR,,0.00,WeatherDisplay:10.37,2013-04-12 15:58:00,
2013-04-12 09:59:00,64.5,20.0,29.91,WSW,248,2.3,2.3,18,0.00,CLR,,0.00,WeatherDisplay:10.37,2013-04-12 15:59:00,
2013-04-12 10:00:00,64.6,20.1,29.91,West,273,3.4,3.4,18,0.00,CLR,,0.00,WeatherDisplay:10.37,2013-04-12 16:00:00,
2013-04-12 10:01:00,64.7,20.2,29.91,West,273,3.4,3.4,18,0.00,CLR,,0.00,WeatherDisplay:10.37,2013-04-12 16:01:00,
2013-04-12 10:03:00,64.8,20.2,29.91,West,267,2.3,2.3,18,0.00,CLR,,0.00,WeatherDisplay:10.37,2013-04-12 16:03:00,
2013-04-12 10:04:00,64.9,20.3,29.91,WSW,249,2.3,2.3,18,0.00,CLR,,0.00,WeatherDisplay:10.37,2013-04-12 16:04:00,
2013-04-12 10:05:00,64.9,21.6,29.91,West,268,3.4,3.4,19,0.00,CLR,,0.00,WeatherDisplay:10.37,2013-04-12 16:05:00,
2013-04-12 10:06:00,65.0,20.4,29.91,WNW,293,3.4,3.4,18,0.00,CLR,,0.00,WeatherDisplay:10.37,2013-04-12 16:06:00,
2013-04-12 10:08:00,65.1,21.8,29.91,SSW,208,3.4,3.4,19,0.00,CLR,,0.00,WeatherDisplay:10.37,2013-04-12 16:08:00,
2013-04-12 10:09:00,65.2,21.9,29.91,SSW,210,3.0,3.0,19,0.00,CLR,,0.00,WeatherDisplay:10.37,2013-04-12 16:09:00,
2013-04-12 10:11:00,65.4,22.0,29.91,West,266,3.4,3.4,19,0.00,CLR,,0.00,WeatherDisplay:10.37,2013-04-12 16:11:00,
2013-04-12 10:12:00,65.5,22.1,29.91,WSW,245,3.4,3.4,19,0.00,CLR,,0.00,WeatherDisplay:10.37,2013-04-12 16:12:00,
2013-04-12 10:13:00,65.7,22.3,29.91,SW,221,2.3,2.3,19,0.00,CLR,,0.00,WeatherDisplay:10.37,2013-04-12 16:13:00,
2013-04-12 10:14:00,65.8,22.3,29.91,SSW,201,1.1,1.1,19,0.00,CLR,,0.00,WeatherDisplay:10.37,2013-04-12 16:14:00,
2013-04-12 10:16:00,66.1,22.6,29.91,WSW,252,2.3,2.3,19,0.00,CLR,,0.00,WeatherDisplay:10.37,2013-04-12 16:16:00,
2013-04-12 10:17:00,66.1,22.6,29.91,SW,234,4.0,4.0,19,0.00,CLR,,0.00,WeatherDisplay:10.37,2013-04-12 16:17:00,
2013-04-12 10:19:00,66.0,21.2,29.91,South,188,3.4,3.4,18,0.00,CLR,,0.00,WeatherDisplay:10.37,2013-04-12 16:19:00,
2013-04-12 10:20:00,65.9,21.2,29.91,SW,219,4.0,4.0,18,0.00,CLR,,0.00,WeatherDisplay:10.37,2013-04-12 16:20:00,
2013-04-12 10:21:00,65.8,21.1,29.91,SW,232,3.4,3.4,18,0.00,CLR,,0.00,WeatherDisplay:10.37,2013-04-12 16:21:00,
2013-04-12 10:22:00,65.8,21.1,29.91,SW,232,1.1,0.0,18,0.00,CLR,,0.00,WeatherDisplay:10.37,2013-04-12 16:22:00,
2013-04-12 10:24:00,66.1,22.6,29.91,WSW,239,2.3,2.3,19,0.00,CLR,,0.00,WeatherDisplay:10.37,2013-04-12 16:24:00,
2013-04-12 10:25:00,66.2,22.7,29.91,WNW,302,3.4,3.4,19,0.00,CLR,,0.00,WeatherDisplay:10.37,2013-04-12 16:25:00,
2013-04-12 10:26:00,66.4,21.6,29.91,SW,217,2.3,2.3,18,0.00,CLR,,0.00,WeatherDisplay:10.37,2013-04-12 16:26:00,
2013-04-12 10:27:00,66.4,21.6,29.91,WSW,239,2.3,2.3,18,0.00,CLR,,0.00,WeatherDisplay:10.37,2013-04-12 16:27:00,
2013-04-12 10:29:00,66.5,22.9,29.91,SW,214,2.3,0.0,19,0.00,CLR,,0.00,WeatherDisplay:10.37,2013-04-12 16:29:00,
2013-04-12 10:30:00,66.7,21.8,29.91,West,275,2.0,2.0,18,0.00,CLR,,0.00,WeatherDisplay:10.37,2013-04-12 16:30:00,
2013-04-12 10:32:00,66.9,22.0,29.91,WSW,239,3.4,3.4,18,0.00,CLR,,0.00,WeatherDisplay:10.37,2013-04-12 16:32:00,
2013-04-12 10:34:00,67.0,22.1,29.91,WNW,293,3.4,3.4,18,0.00,CLR,,0.00,WeatherDisplay:10.37,2013-04-12 16:34:00,
2013-04-12 10:35:00,67.0,22.1,29.91,West,276,3.4,3.4,18,0.00,CLR,,0.00,WeatherDisplay:10.37,2013-04-12 16:35:00,
2013-04-12 10:37:00,67.1,22.1,29.91,SW,219,3.0,3.0,18,0.00,CLR,,0.00,WeatherDisplay:10.37,2013-04-12 16:37:00,
2013-04-12 10:39:00,67.1,22.1,29.91,SW,224,3.4,3.4,18,0.00,CLR,,0.00,WeatherDisplay:10.37,2013-04-12 16:39:00,
2013-04-12 10:40:00,67.1,22.1,29.91,SW,222,3.4,3.4,18,0.00,CLR,,0.00,WeatherDisplay:10.37,2013-04-12 16:40:00,
2013-04-12 10:42:00,67.0,23.3,29.91,West,260,3.4,3.4,19,0.00,CLR,,0.00,WeatherDisplay:10.37,2013-04-12 16:42:00,
2013-04-12 10:45:00,67.0,23.3,29.91,SW,231,2.3,2.3,19,0.00,CLR,,0.00,WeatherDisplay:10.37,2013-04-12 16:45:00,
2013-04-12 10:47:00,67.4,23.7,29.91,SSW,207,3.4,3.4,19,0.00,CLR,,0.00,WeatherDisplay:10.37,2013-04-12 16:47:00,
2013-04-12 10:50:00,67.6,22.5,29.91,SSW,212,4.6,4.6,18,0.00,CLR,,0.00,WeatherDisplay:10.37,2013-04-12 16:50:00,
2013-04-12 10:52:00,67.6,22.5,29.91,SE,129,3.4,3.4,18,0.00,CLR,,0.00,WeatherDisplay:10.37,2013-04-12 16:52:00,
2013-04-12 10:55:00,68.2,23.0,29.91,SSW,195,1.1,1.5,18,0.00,CLR,,0.00,WeatherDisplay:10.37,2013-04-12 16:55:00,
2013-04-12 10:56:00,68.3,23.1,29.91,South,181,4.6,4.6,18,0.00,CLR,,0.00,WeatherDisplay:10.37,2013-04-12 16:56:00,
2013-04-12 10:57:00,68.4,23.2,29.91,SSW,202,5.8,5.8,18,0.00,CLR,,0.00,WeatherDisplay:10.37,2013-04-12 16:57:00,
2013-04-12 11:00:00,68.6,23.4,29.90,West,277,2.3,2.3,18,0.00,CLR,,0.00,WeatherDisplay:10.37,2013-04-12 17:00:00,
2013-04-12 11:01:00,68.6,23.4,29.90,SW,234,1.1,1.1,18,0.00,CLR,,0.00,WeatherDisplay:10.37,2013-04-12 17:01:00,
2013-04-12 11:02:00,68.7,24.7,29.90,SW,228,3.4,3.4,19,0.00,CLR,,0.00,WeatherDisplay:10.37,2013-04-12 17:02:00,
2013-04-12 11:06:00,69.0,23.7,29.90,SE,138,3.0,3.0,18,0.00,CLR,,0.00,WeatherDisplay:10.37,2013-04-12 17:06:00,
2013-04-12 11:07:00,69.3,23.9,29.90,ESE,120,3.4,3.4,18,0.00,CLR,,0.00,WeatherDisplay:10.37,2013-04-12 17:07:00,
2013-04-12 11:08:00,69.4,24.0,29.90,SSE,148,3.4,3.4,18,0.00,CLR,,0.00,WeatherDisplay:10.37,2013-04-12 17:08:00,
2013-04-12 11:11:00,69.7,24.3,29.91,East,83,3.4,3.4,18,0.00,CLR,,0.00,WeatherDisplay:10.37,2013-04-12 17:11:00,
2013-04-12 11:12:00,69.9,24.4,29.91,SE,129,3.4,3.4,18,0.00,CLR,,0.00,WeatherDisplay:10.37,2013-04-12 17:12:00,
2013-04-12 11:13:00,69.9,24.4,29.90,ESE,105,4.0,4.0,18,0.00,CLR,,0.00,WeatherDisplay:10.37,2013-04-12 17:13:00,
2013-04-12 11:16:00,69.5,25.4,29.90,SE,131,2.3,2.3,19,0.00,CLR,,0.00,WeatherDisplay:10.37,2013-04-12 17:16:00,
2013-04-12 11:17:00,69.3,25.2,29.90,SSW,203,3.4,3.4,19,0.00,CLR,,0.00,WeatherDisplay:10.37,2013-04-12 17:17:00,
2013-04-12 11:18:00,69.3,25.2,29.90,SW,233,2.3,2.3,19,0.00,CLR,,0.00,WeatherDisplay:10.37,2013-04-12 17:18:00,
2013-04-12 11:21:00,69.1,23.8,29.90,WNW,289,3.4,3.4,18,0.00,CLR,,0.00,WeatherDisplay:10.37,2013-04-12 17:21:00,
2013-04-12 11:22:00,69.1,23.8,29.90,WNW,289,3.4,3.4,18,0.00,CLR,,0.00,WeatherDisplay:10.37,2013-04-12 17:22:00,
2013-04-12 11:23:00,69.1,25.1,29.90,SE,143,1.1,1.1,19,0.00,CLR,,0.00,WeatherDisplay:10.37,2013-04-12 17:23:00,
2013-04-12 11:27:00,69.7,25.6,29.90,ESE,120,3.4,3.4,19,0.00,CLR,,0.00,WeatherDisplay:10.37,2013-04-12 17:27:00,
2013-04-12 11:28:00,70.1,25.9,29.90,SE,136,3.4,3.4,19,0.00,CLR,,0.00,WeatherDisplay:10.37,2013-04-12 17:28:00,
2013-04-12 11:32:00,70.6,25.0,29.90,SSW,207,3.4,3.4,18,0.00,CLR,,0.00,WeatherDisplay:10.37,2013-04-12 17:32:00,
2013-04-12 11:33:00,70.6,25.0,29.90,SE,134,5.0,5.0,18,0.00,CLR,,0.00,WeatherDisplay:10.37,2013-04-12 17:33:00,
2013-04-12 11:38:00,71.1,25.4,29.90,SSW,211,6.9,6.9,18,0.00,CLR,,0.00,WeatherDisplay:10.37,2013-04-12 17:38:00,
2013-04-12 11:43:00,70.9,25.2,29.90,West,281,3.4,3.4,18,0.00,CLR,,0.00,WeatherDisplay:10.37,2013-04-12 17:43:00,
2013-04-12 11:48:00,71.8,24.6,29.90,West,278,3.4,3.4,17,0.00,CLR,,0.00,WeatherDisplay:10.37,2013-04-12 17:48:00,
2013-04-12 11:53:00,72.5,25.2,29.90,West,274,2.3,2.3,17,0.00,CLR,,0.00,WeatherDisplay:10.37,2013-04-12 17:53:00,
2013-04-12 11:58:00,71.9,21.7,29.90,West,262,10.3,10.3,15,0.00,CLR,,0.00,WeatherDisplay:10.37,2013-04-12 17:58:00,
2013-04-12 12:03:00,71.8,23.2,29.90,West,264,5.8,5.8,16,0.00,CLR,,0.00,WeatherDisplay:10.37,2013-04-12 18:03:00,
2013-04-12 12:08:00,71.9,24.7,29.90,SW,233,5.8,5.8,17,0.00,CLR,,0.00,WeatherDisplay:10.37,2013-04-12 18:08:00,
2013-04-12 12:13:00,72.6,25.2,29.90,SSW,192,3.0,5.0,17,0.00,CLR,,0.00,WeatherDisplay:10.37,2013-04-12 18:13:00,
2013-04-12 12:18:00,73.2,25.7,29.89,SSE,150,5.8,5.8,17,0.00,CLR,,0.00,WeatherDisplay:10.37,2013-04-12 18:18:00,
2013-04-12 12:23:00,72.5,25.1,29.89,SE,124,3.0,8.0,17,0.00,CLR,,0.00,WeatherDisplay:10.37,2013-04-12 18:23:00,
2013-04-12 12:28:00,72.3,25.0,29.89,SSE,150,2.3,2.3,17,0.00,CLR,,0.00,WeatherDisplay:10.37,2013-04-12 18:28:00,
2013-04-12 13:26:00,76.2,23.5,29.86,SSW,197,4.6,4.6,14,0.00,CLR,,0.00,WeatherDisplay:10.37,2013-04-12 19:26:00,
2013-04-12 13:31:00,76.4,23.6,29.86,East,95,3.4,3.4,14,0.00,CLR,,0.00,WeatherDisplay:10.37,2013-04-12 19:31:00,
2013-04-12 13:32:00,76.4,23.6,29.86,SW,235,3.4,3.4,14,0.00,CLR,,0.00,WeatherDisplay:10.37,2013-04-12 19:32:00,
2013-04-12 13:36:00,77.4,16.5,29.86,ENE,57,3.4,3.4,10,0.00,CLR,,0.00,WeatherDisplay:10.37,2013-04-12 19:36:00,
2013-04-12 13:37:00,77.4,16.5,29.86,NE,43,3.4,3.4,10,0.00,CLR,,0.00,WeatherDisplay:10.37,2013-04-12 19:37:00,
2013-04-12 13:42:00,76.4,15.7,29.86,ESE,120,6.0,6.0,10,0.00,CLR,,0.00,WeatherDisplay:10.37,2013-04-12 19:42:00,
2013-04-12 13:43:00,76.1,15.5,29.85,ENE,69,8.1,8.1,10,0.00,CLR,,0.00,WeatherDisplay:10.37,2013-04-12 19:43:00,
2013-04-12 13:47:00,75.4,15.0,29.85,ENE,69,9.2,9.2,10,0.00,CLR,,0.00,WeatherDisplay:10.37,2013-04-12 19:47:00,
2013-04-12 13:48:00,75.2,22.7,29.85,WSW,257,6.9,6.9,14,0.00,CLR,,0.00,WeatherDisplay:10.37,2013-04-12 19:48:00,
2013-04-12 13:52:00,74.7,22.3,29.85,SW,236,4.6,4.6,14,0.00,CLR,,0.00,WeatherDisplay:10.37,2013-04-12 19:52:00,
2013-04-12 13:53:00,74.8,22.4,29.85,ESE,107,3.4,3.4,14,0.00,CLR,,0.00,WeatherDisplay:10.37,2013-04-12 19:53:00,
2013-04-12 13:57:00,75.5,15.1,29.84,South,177,4.6,4.6,10,0.00,CLR,,0.00,WeatherDisplay:10.37,2013-04-12 19:57:00,
2013-04-12 13:58:00,75.8,15.3,29.84,WSW,245,3.4,3.4,10,0.00,CLR,,0.00,WeatherDisplay:10.37,2013-04-12 19:58:00,
2013-04-12 14:02:00,76.8,24.0,29.84,SE,132,9.2,9.2,14,0.00,CLR,,0.00,WeatherDisplay:10.37,2013-04-12 20:02:00,
2013-04-12 14:03:00,76.9,16.1,29.84,WSW,244,7.0,7.0,10,0.00,CLR,,0.00,WeatherDisplay:10.37,2013-04-12 20:03:00,
2013-04-12 14:07:00,77.4,20.8,29.84,SW,225,2.3,2.3,12,0.00,CLR,,0.00,WeatherDisplay:10.37,2013-04-12 20:07:00,
2013-04-12 14:08:00,77.5,20.8,29.84,WSW,249,5.0,5.0,12,0.00,CLR,,0.00,WeatherDisplay:10.37,2013-04-12 20:08:00,
2013-04-12 14:12:00,78.3,21.5,29.84,WSW,239,4.6,4.6,12,0.00,CLR,,0.00,WeatherDisplay:10.37,2013-04-12 20:12:00,
2013-04-12 14:13:00,78.3,19.4,29.84,SW,217,5.0,5.0,11,0.00,CLR,,0.00,WeatherDisplay:10.37,2013-04-12 20:13:00,
2013-04-12 14:18:00,77.8,19.0,29.84,SW,233,9.2,9.2,11,0.00,CLR,,0.00,WeatherDisplay:10.37,2013-04-12 20:18:00,
2013-04-12 14:19:00,77.8,19.0,29.84,WSW,248,8.1,8.1,11,0.00,CLR,,0.00,WeatherDisplay:10.37,2013-04-12 20:19:00,
2013-04-12 14:23:00,77.5,18.8,29.84,West,279,9.2,9.2,11,0.00,CLR,,0.00,WeatherDisplay:10.37,2013-04-12 20:23:00,
2013-04-12 14:24:00,77.4,18.7,29.84,SW,235,8.1,8.1,11,0.00,CLR,,0.00,WeatherDisplay:10.37,2013-04-12 20:24:00,
2013-04-12 14:28:00,77.5,18.8,29.83,WSW,244,5.8,5.8,11,0.00,CLR,,0.00,WeatherDisplay:10.37,2013-04-12 20:28:00,
2013-04-12 14:29:00,77.4,18.7,29.84,WNW,299,5.8,5.8,11,0.00,CLR,,0.00,WeatherDisplay:10.37,2013-04-12 20:29:00,
2013-04-12 14:33:00,76.6,18.1,29.83,WSW,252,4.6,4.6,11,0.00,CLR,,0.00,WeatherDisplay:10.37,2013-04-12 20:33:00,
2013-04-12 14:34:00,76.6,18.1,29.83,ESE,110,3.4,3.4,11,0.00,CLR,,0.00,WeatherDisplay:10.37,2013-04-12 20:34:00,
2013-04-12 14:38:00,77.1,18.5,29.83,West,270,8.1,8.1,11,0.00,CLR,,0.00,WeatherDisplay:10.37,2013-04-12 20:38:00,
2013-04-12 14:39:00,77.2,18.6,29.83,SW,235,4.0,4.0,11,0.00,CLR,,0.00,WeatherDisplay:10.37,2013-04-12 20:39:00,
2013-04-12 14:43:00,77.5,18.8,29.83,NW,312,2.3,2.3,11,0.00,CLR,,0.00,WeatherDisplay:10.37,2013-04-12 20:43:00,
2013-04-12 14:44:00,77.5,18.8,29.83,SW,214,4.0,4.0,11,0.00,CLR,,0.00,WeatherDisplay:10.37,2013-04-12 20:44:00,
2013-04-12 14:45:00,77.4,18.7,29.83,WNW,291,5.8,5.8,11,0.00,CLR,,0.00,WeatherDisplay:10.37,2013-04-12 20:45:00,
2013-04-12 14:48:00,76.6,18.1,29.83,NW,322,3.4,3.4,11,0.00,CLR,,0.00,WeatherDisplay:10.37,2013-04-12 20:48:00,
2013-04-12 14:49:00,76.3,17.9,29.83,NW,311,5.0,5.0,11,0.00,CLR,,0.00,WeatherDisplay:10.37,2013-04-12 20:49:00,
2013-04-12 14:50:00,76.0,17.6,29.83,West,274,5.8,5.8,11,0.00,CLR,,0.00,WeatherDisplay:10.37,2013-04-12 20:50:00,
2013-04-12 14:53:00,75.8,17.5,29.83,North,356,5.8,5.8,11,0.00,CLR,,0.00,WeatherDisplay:10.37,2013-04-12 20:53:00,
2013-04-12 14:54:00,75.9,17.6,29.83,West,276,3.4,3.4,11,0.00,CLR,,0.00,WeatherDisplay:10.37,2013-04-12 20:54:00,
2013-04-12 14:55:00,75.9,17.6,29.83,West,275,3.4,3.4,11,0.00,CLR,,0.00,WeatherDisplay:10.37,2013-04-12 20:55:00,
2013-04-12 14:58:00,75.9,17.6,29.83,SSE,163,5.0,5.0,11,0.00,CLR,,0.00,WeatherDisplay:10.37,2013-04-12 20:58:00,
2013-04-12 15:00:00,76.5,18.0,29.83,SSW,208,5.0,5.0,11,0.00,CLR,,0.00,WeatherDisplay:10.37,2013-04-12 21:00:00,
2013-04-12 15:04:00,77.5,18.8,29.82,SW,228,6.0,6.0,11,0.00,CLR,,0.00,WeatherDisplay:10.37,2013-04-12 21:04:00,
2013-04-12 15:05:00,77.5,18.8,29.82,SSW,212,5.8,5.8,11,0.00,CLR,,0.00,WeatherDisplay:10.37,2013-04-12 21:05:00,
2013-04-12 15:06:00,77.5,18.8,29.82,SSW,210,3.4,3.4,11,0.00,CLR,,0.00,WeatherDisplay:10.37,2013-04-12 21:06:00,
2013-04-12 15:09:00,77.7,16.7,29.82,West,281,5.8,5.8,10,0.00,CLR,,0.00,WeatherDisplay:10.37,2013-04-12 21:09:00,
2013-04-12 15:10:00,77.7,16.7,29.82,SW,225,5.0,5.0,10,0.00,CLR,,0.00,WeatherDisplay:10.37,2013-04-12 21:10:00,
2013-04-12 15:11:00,77.5,16.6,29.82,SW,236,10.3,10.3,10,0.00,CLR,,0.00,WeatherDisplay:10.37,2013-04-12 21:11:00,
2013-04-12 15:14:00,77.7,19.0,29.82,West,266,11.5,11.5,11,0.00,CLR,,0.00,WeatherDisplay:10.37,2013-04-12 21:14:00,
2013-04-12 15:15:00,77.8,16.8,29.82,West,279,8.1,8.1,10,0.00,CLR,,0.00,WeatherDisplay:10.37,2013-04-12 21:15:00,
2013-04-12 15:16:00,77.5,16.6,29.82,SW,226,9.2,9.2,10,0.00,CLR,,0.00,WeatherDisplay:10.37,2013-04-12 21:16:00,
2013-04-12 15:19:00,77.7,16.7,29.82,SE,132,5.8,5.8,10,0.00,CLR,,0.00,WeatherDisplay:10.37,2013-04-12 21:19:00,
2013-04-12 15:20:00,77.7,19.0,29.82,West,281,5.0,5.0,11,0.00,CLR,,0.00,WeatherDisplay:10.37,2013-04-12 21:20:00,
2013-04-12 15:21:00,77.7,16.7,29.82,South,181,6.9,6.9,10,0.00,CLR,,0.00,WeatherDisplay:10.37,2013-04-12 21:21:00,
2013-04-12 15:24:00,77.7,16.7,29.82,WSW,257,4.6,4.6,10,0.00,CLR,,0.00,WeatherDisplay:10.37,2013-04-12 21:24:00,
2013-04-12 15:25:00,77.6,16.7,29.82,SW,218,6.9,6.9,10,0.00,CLR,,0.00,WeatherDisplay:10.37,2013-04-12 21:25:00,
2013-04-12 15:26:00,77.5,16.6,29.82,SW,217,2.3,2.3,10,0.00,CLR,,0.00,WeatherDisplay:10.37,2013-04-12 21:26:00,
2013-04-12 15:29:00,78.0,17.0,29.82,SE,135,3.4,3.4,10,0.00,CLR,,0.00,WeatherDisplay:10.37,2013-04-12 21:29:00,
2013-04-12 15:30:00,77.8,16.8,29.82,East,101,3.4,3.4,10,0.00,CLR,,0.00,WeatherDisplay:10.37,2013-04-12 21:30:00,
2013-04-12 15:31:00,78.2,17.1,29.82,WSW,243,4.0,4.0,10,0.00,CLR,,0.00,WeatherDisplay:10.37,2013-04-12 21:31:00,
2013-04-12 15:34:00,78.0,17.0,29.81,SSW,207,6.9,6.9,10,0.00,CLR,,0.00,WeatherDisplay:10.37,2013-04-12 21:34:00,
2013-04-12 15:35:00,78.0,17.0,29.81,SSE,147,6.9,6.9,10,0.00,CLR,,0.00,WeatherDisplay:10.37,2013-04-12 21:35:00,
2013-04-12 15:36:00,78.0,17.0,29.81,SSE,160,3.4,3.4,10,0.00,CLR,,0.00,WeatherDisplay:10.37,2013-04-12 21:36:00,
2013-04-12 15:39:00,78.2,17.1,29.81,SSW,208,5.8,5.8,10,0.00,CLR,,0.00,WeatherDisplay:10.37,2013-04-12 21:39:00,
2013-04-12 15:41:00,78.4,17.3,29.81,SSW,213,4.6,4.6,10,0.00,CLR,,0.00,WeatherDisplay:10.37,2013-04-12 21:41:00,
2013-04-12 15:45:00,77.8,16.8,29.81,West,263,10.3,10.3,10,0.00,CLR,,0.00,WeatherDisplay:10.37,2013-04-12 21:45:00,
2013-04-12 15:46:00,77.9,16.9,29.81,SE,125,10.3,10.3,10,0.00,CLR,,0.00,WeatherDisplay:10.37,2013-04-12 21:46:00,
2013-04-12 15:50:00,77.2,16.4,29.81,WSW,255,3.4,3.4,10,0.00,CLR,,0.00,WeatherDisplay:10.37,2013-04-12 21:50:00,
2013-04-12 15:51:00,77.2,16.4,29.81,SW,214,3.4,3.4,10,0.00,CLR,,0.00,WeatherDisplay:10.37,2013-04-12 21:51:00,
2013-04-12 15:52:00,77.3,16.4,29.81,WNW,297,5.0,5.0,10,0.00,CLR,,0.00,WeatherDisplay:10.37,2013-04-12 21:52:00,
2013-04-12 15:55:00,77.4,16.5,29.80,WNW,298,8.1,8.1,10,0.00,CLR,,0.00,WeatherDisplay:10.37,2013-04-12 21:55:00,
2013-04-12 15:56:00,77.2,16.4,29.80,NW,318,8.1,8.1,10,0.00,CLR,,0.00,WeatherDisplay:10.37,2013-04-12 21:56:00,
2013-04-12 15:57:00,77.2,16.4,29.81,West,264,4.6,4.6,10,0.00,CLR,,0.00,WeatherDisplay:10.37,2013-04-12 21:57:00,
2013-04-12 16:00:00,77.0,16.2,29.80,WNW,288,4.6,4.6,10,0.00,CLR,,0.00,WeatherDisplay:10.37,2013-04-12 22:00:00,
2013-04-12 16:01:00,77.0,16.2,29.80,WSW,256,4.6,4.6,10,0.00,CLR,,0.00,WeatherDisplay:10.37,2013-04-12 22:01:00,
2013-04-12 16:02:00,77.1,16.3,29.80,WNW,285,3.4,3.4,10,0.00,CLR,,0.00,WeatherDisplay:10.37,2013-04-12 22:02:00,
2013-04-12 16:05:00,77.2,16.4,29.80,East,94,1.1,1.1,10,0.00,CLR,,0.00,WeatherDisplay:10.37,2013-04-12 22:05:00,
2013-04-12 16:06:00,77.5,16.6,29.80,SW,232,1.1,0.0,10,0.00,CLR,,0.00,WeatherDisplay:10.37,2013-04-12 22:06:00,
2013-04-12 16:07:00,77.7,16.7,29.80,WSW,246,1.1,1.1,10,0.00,CLR,,0.00,WeatherDisplay:10.37,2013-04-12 22:07:00,
2013-04-12 16:10:00,78.4,17.3,29.80,South,183,3.4,3.4,10,0.00,CLR,,0.00,WeatherDisplay:10.37,2013-04-12 22:10:00,
2013-04-12 16:11:00,78.6,17.4,29.80,South,191,5.8,5.8,10,0.00,CLR,,0.00,WeatherDisplay:10.37,2013-04-12 22:11:00,
2013-04-12 16:12:00,78.7,17.5,29.80,ESE,122,8.1,8.1,10,0.00,CLR,,0.00,WeatherDisplay:10.37,2013-04-12 22:12:00,
2013-04-12 16:15:00,77.8,16.8,29.80,SE,127,3.0,0.0,10,0.00,CLR,,0.00,WeatherDisplay:10.37,2013-04-12 22:15:00,
2013-04-12 16:17:00,77.9,16.9,29.80,East,88,3.4,3.4,10,0.00,CLR,,0.00,WeatherDisplay:10.37,2013-04-12 22:17:00,
2013-04-12 16:19:00,77.8,16.8,29.80,SE,134,3.4,3.4,10,0.00,CLR,,0.00,WeatherDisplay:10.37,2013-04-12 22:19:00,
2013-04-12 16:21:00,78.3,17.2,29.80,SE,140,4.6,4.6,10,0.00,CLR,,0.00,WeatherDisplay:10.37,2013-04-12 22:21:00,
2013-04-12 16:22:00,78.2,17.1,29.80,NW,320,11.5,11.5,10,0.00,CLR,,0.00,WeatherDisplay:10.37,2013-04-12 22:22:00,
2013-04-12 16:24:00,77.8,16.8,29.80,WSW,255,8.1,8.1,10,0.00,CLR,,0.00,WeatherDisplay:10.37,2013-04-12 22:24:00,
2013-04-12 16:26:00,77.8,16.8,29.80,West,266,8.1,8.1,10,0.00,CLR,,0.00,WeatherDisplay:10.37,2013-04-12 22:26:00,
2013-04-12 16:27:00,77.8,16.8,29.80,West,276,4.0,4.0,10,0.00,CLR,,0.00,WeatherDisplay:10.37,2013-04-12 22:27:00,
2013-04-12 16:28:00,77.8,16.8,29.80,West,271,5.8,5.8,10,0.00,CLR,,0.00,WeatherDisplay:10.37,2013-04-12 22:28:00,
2013-04-12 16:30:00,77.9,16.9,29.80,SE,137,4.6,4.6,10,0.00,CLR,,0.00,WeatherDisplay:10.37,2013-04-12 22:30:00,
2013-04-12 16:31:00,77.9,16.9,29.80,SSE,160,10.3,10.3,10,0.00,CLR,,0.00,WeatherDisplay:10.37,2013-04-12 22:31:00,
2013-04-12 16:33:00,77.9,16.9,29.80,South,190,8.1,8.1,10,0.00,CLR,,0.00,WeatherDisplay:10.37,2013-04-12 22:33:00,
2013-04-12 16:35:00,78.0,17.0,29.80,West,274,4.6,4.6,10,0.00,CLR,,0.00,WeatherDisplay:10.37,2013-04-12 22:35:00,
2013-04-12 16:36:00,78.0,17.0,29.80,WNW,302,4.6,4.6,10,0.00,CLR,,0.00,WeatherDisplay:10.37,2013-04-12 22:36:00,
2013-04-12 16:38:00,77.8,16.8,29.80,SW,222,3.4,3.4,10,0.00,CLR,,0.00,WeatherDisplay:10.37,2013-04-12 22:38:00,
2013-04-12 16:40:00,77.4,16.5,29.80,SW,222,3.4,3.4,10,0.00,CLR,,0.00,WeatherDisplay:10.37,2013-04-12 22:40:00,
2013-04-12 16:41:00,77.4,16.5,29.80,SW,219,3.4,3.4,10,0.00,CLR,,0.00,WeatherDisplay:10.37,2013-04-12 22:41:00,
2013-04-12 16:43:00,77.2,16.4,29.80,West,260,5.8,5.8,10,0.00,CLR,,0.00,WeatherDisplay:10.37,2013-04-12 22:43:00,
2013-04-12 16:45:00,76.9,16.1,29.80,WSW,252,5.8,5.8,10,0.00,CLR,,0.00,WeatherDisplay:10.37,2013-04-12 22:45:00,
2013-04-12 16:46:00,76.8,16.1,29.80,West,267,5.8,5.8,10,0.00,CLR,,0.00,WeatherDisplay:10.37,2013-04-12 22:46:00,
2013-04-12 16:48:00,76.8,18.3,29.80,WSW,238,3.4,3.4,11,0.00,CLR,,0.00,WeatherDisplay:10.37,2013-04-12 22:48:00,
2013-04-12 16:50:00,76.9,16.1,29.80,WSW,246,3.4,3.4,10,0.00,CLR,,0.00,WeatherDisplay:10.37,2013-04-12 22:50:00,
2013-04-12 16:51:00,77.0,18.4,29.80,SW,235,3.4,3.4,11,0.00,CLR,,0.00,WeatherDisplay:10.37,2013-04-12 22:51:00,
2013-04-12 16:53:00,77.0,16.2,29.80,West,279,3.4,3.4,10,0.00,CLR,,0.00,WeatherDisplay:10.37,2013-04-12 22:53:00,
2013-04-12 16:56:00,76.7,16.0,29.80,WNW,294,3.4,3.4,10,0.00,CLR,,0.00,WeatherDisplay:10.37,2013-04-12 22:56:00,
2013-04-12 16:58:00,76.3,15.7,29.80,NNW,328,3.4,3.4,10,0.00,CLR,,0.00,WeatherDisplay:10.37,2013-04-12 22:58:00,
2013-04-12 17:01:00,75.9,15.4,29.80,NNW,335,1.1,0.0,10,0.00,CLR,,0.00,WeatherDisplay:10.37,2013-04-12 23:01:00,
2013-04-12 17:03:00,75.8,15.3,29.80,NNW,336,3.4,3.4,10,0.00,CLR,,0.00,WeatherDisplay:10.37,2013-04-12 23:03:00,
2013-04-12 17:06:00,75.7,17.4,29.80,SW,230,3.4,3.6,11,0.00,CLR,,0.00,WeatherDisplay:10.37,2013-04-12 23:06:00,
2013-04-12 17:08:00,75.9,15.4,29.80,West,260,3.4,3.4,10,0.00,CLR,,0.00,WeatherDisplay:10.37,2013-04-12 23:08:00,
2013-04-12 17:09:00,75.9,15.4,29.80,WSW,257,3.4,3.4,10,0.00,CLR,,0.00,WeatherDisplay:10.37,2013-04-12 23:09:00,
2013-04-12 17:11:00,76.1,15.5,29.80,SSW,198,5.8,5.8,10,0.00,CLR,,0.00,WeatherDisplay:10.37,2013-04-12 23:11:00,
2013-04-12 17:14:00,75.9,15.4,29.80,SSW,212,8.1,8.1,10,0.00,CLR,,0.00,WeatherDisplay:10.37,2013-04-12 23:14:00,
2013-04-12 17:16:00,75.9,17.6,29.80,West,266,6.9,6.9,11,0.00,CLR,,0.00,WeatherDisplay:10.37,2013-04-12 23:16:00,
2013-04-12 17:19:00,75.8,17.5,29.80,South,179,3.4,3.4,11,0.00,CLR,,0.00,WeatherDisplay:10.37,2013-04-12 23:19:00,
2013-04-12 17:22:00,75.9,17.6,29.80,SSE,166,3.4,3.4,11,0.00,CLR,,0.00,WeatherDisplay:10.37,2013-04-12 23:22:00,
2013-04-12 17:24:00,76.2,15.6,29.80,SSE,162,3.4,3.4,10,0.00,CLR,,0.00,WeatherDisplay:10.37,2013-04-12 23:24:00,
2013-04-12 17:27:00,76.2,15.6,29.80,East,88,5.0,5.0,10,0.00,CLR,,0.00,WeatherDisplay:10.37,2013-04-12 23:27:00,
2013-04-12 17:28:00,76.1,15.5,29.80,South,172,9.2,9.2,10,0.00,CLR,,0.00,WeatherDisplay:10.37,2013-04-12 23:28:00,
2013-04-12 17:29:00,76.0,15.4,29.80,SSE,165,6.0,6.0,10,0.00,CLR,,0.00,WeatherDisplay:10.37,2013-04-12 23:29:00,
2013-04-12 17:30:00,76.0,15.4,29.80,South,170,9.2,9.2,10,0.00,CLR,,0.00,WeatherDisplay:10.37,2013-04-12 23:30:00,
2013-04-12 17:33:00,75.6,15.1,29.80,ENE,70,3.4,3.4,10,0.00,CLR,,0.00,WeatherDisplay:10.37,2013-04-12 23:33:00,
2013-04-12 17:34:00,75.5,15.1,29.80,SE,129,4.6,4.6,10,0.00,CLR,,0.00,WeatherDisplay:10.37,2013-04-12 23:34:00,
2013-04-12 17:35:00,75.5,15.1,29.79,East,90,3.4,3.4,10,0.00,CLR,,0.00,WeatherDisplay:10.37,2013-04-12 23:35:00,
2013-04-12 17:38:00,75.4,17.2,29.80,ESE,122,6.0,6.0,11,0.00,CLR,,0.00,WeatherDisplay:10.37,2013-04-12 23:38:00,
2013-04-12 17:39:00,75.3,17.1,29.80,East,101,8.1,8.1,11,0.00,CLR,,0.00,WeatherDisplay:10.37,2013-04-12 23:39:00,
2013-04-12 17:41:00,75.2,14.8,29.80,SE,137,6.9,6.9,10,0.00,CLR,,0.00,WeatherDisplay:10.37,2013-04-12 23:41:00,
2013-04-12 17:43:00,75.1,17.0,29.79,SE,144,3.4,3.4,11,0.00,CLR,,0.00,WeatherDisplay:10.37,2013-04-12 23:43:00,
2013-04-12 17:44:00,75.3,17.1,29.79,SSW,205,1.1,1.1,11,0.00,CLR,,0.00,WeatherDisplay:10.37,2013-04-12 23:44:00,
2013-04-12 17:46:00,75.7,17.4,29.79,SSW,204,0.0,0.0,11,0.00,CLR,,0.00,WeatherDisplay:10.37,2013-04-12 23:46:00,
2013-04-12 17:48:00,76.3,15.7,29.80,SW,224,4.0,4.0,10,0.00,CLR,,0.00,WeatherDisplay:10.37,2013-04-12 23:48:00,
2013-04-12 17:49:00,76.4,15.7,29.79,SW,228,3.4,3.4,10,0.00,CLR,,0.00,WeatherDisplay:10.37,2013-04-12 23:49:00,
2013-04-12 17:51:00,76.6,15.9,29.79,SSW,212,2.3,2.3,10,0.00,CLR,,0.00,WeatherDisplay:10.37,2013-04-12 23:51:00,
2013-04-12 17:53:00,77.0,16.2,29.79,ESE,121,3.4,3.4,10,0.00,CLR,,0.00,WeatherDisplay:10.37,2013-04-12 23:53:00,
2013-04-12 17:55:00,77.1,16.3,29.79,SSW,198,3.4,3.4,10,0.00,CLR,,0.00,WeatherDisplay:10.37,2013-04-12 23:55:00,
2013-04-12 17:56:00,77.2,16.4,29.80,SSW,203,6.9,6.9,10,0.00,CLR,,0.00,WeatherDisplay:10.37,2013-04-12 23:56:00,
2013-04-12 17:58:00,77.2,16.4,29.80,South,187,3.4,3.4,10,0.00,CLR,,0.00,WeatherDisplay:10.37,2013-04-12 23:58:00,
2013-04-12 17:59:00,77.2,16.4,29.80,SSE,168,5.0,5.0,10,0.00,CLR,,0.00,WeatherDisplay:10.37,2013-04-12 23:59:00,
2013-04-12 18:00:00,77.2,16.4,29.80,South,179,8.1,8.1,10,0.00,CLR,,0.00,WeatherDisplay:10.37,2013-04-13 00:00:00,
2013-04-12 18:01:00,77.1,16.3,29.80,SSW,201,5.8,5.8,10,0.00,CLR,,0.00,WeatherDisplay:10.37,2013-04-13 00:01:00,
2013-04-12 18:03:00,77.1,16.3,29.80,SSE,153,2.3,2.3,10,0.00,CLR,,0.00,WeatherDisplay:10.37,2013-04-13 00:03:00,
2013-04-12 18:04:00,77.0,16.2,29.80,SSE,165,2.3,2.3,10,0.00,CLR,,0.00,WeatherDisplay:10.37,2013-04-13 00:04:00,
2013-04-12 18:05:00,77.0,16.2,29.80,South,183,4.6,4.6,10,0.00,CLR,,0.00,WeatherDisplay:10.37,2013-04-13 00:05:00,
2013-04-12 18:06:00,76.9,16.1,29.80,WSW,240,9.0,9.0,10,0.00,CLR,,0.00,WeatherDisplay:10.37,2013-04-13 00:06:00,
2013-04-12 18:08:00,76.6,15.9,29.80,SW,228,5.8,5.8,10,0.00,CLR,,0.00,WeatherDisplay:10.37,2013-04-13 00:08:00,
2013-04-12 18:09:00,76.6,15.9,29.80,SW,215,5.8,5.8,10,0.00,CLR,,0.00,WeatherDisplay:10.37,2013-04-13 00:09:00,
2013-04-12 18:10:00,76.6,15.9,29.80,WSW,239,4.6,4.6,10,0.00,CLR,,0.00,WeatherDisplay:10.37,2013-04-13 00:10:00,
2013-04-12 18:12:00,76.5,15.8,29.80,SSE,155,3.4,3.4,10,0.00,CLR,,0.00,WeatherDisplay:10.37,2013-04-13 00:12:00,
2013-04-12 18:13:00,76.7,16.0,29.80,East,93,1.1,0.0,10,0.00,CLR,,0.00,WeatherDisplay:10.37,2013-04-13 00:13:00,
2013-04-12 18:14:00,76.7,16.0,29.80,ESE,114,1.1,1.1,10,0.00,CLR,,0.00,WeatherDisplay:10.37,2013-04-13 00:14:00,
2013-04-12 18:15:00,76.6,15.9,29.80,ESE,122,4.0,4.0,10,0.00,CLR,,0.00,WeatherDisplay:10.37,2013-04-13 00:15:00,
2013-04-12 18:17:00,76.3,15.7,29.80,ESE,120,3.4,3.4,10,0.00,CLR,,0.00,WeatherDisplay:10.37,2013-04-13 00:17:00,
2013-04-12 18:19:00,75.9,15.4,29.80,SSE,148,2.3,2.3,10,0.00,CLR,,0.00,WeatherDisplay:10.37,2013-04-13 00:19:00,
2013-04-12 18:20:00,75.9,15.4,29.80,West,281,3.0,3.0,10,0.00,CLR,,0.00,WeatherDisplay:10.37,2013-04-13 00:20:00,
2013-04-12 18:23:00,75.7,15.2,29.80,WNW,297,4.6,4.6,10,0.00,CLR,,0.00,WeatherDisplay:10.37,2013-04-13 00:23:00,
2013-04-12 18:24:00,75.5,15.1,29.80,West,271,3.4,3.4,10,0.00,CLR,,0.00,WeatherDisplay:10.37,2013-04-13 00:24:00,
2013-04-12 18:25:00,75.4,15.0,29.80,WNW,290,4.0,4.0,10,0.00,CLR,,0.00,WeatherDisplay:10.37,2013-04-13 00:25:00,
2013-04-12 18:28:00,75.1,14.8,29.80,NW,307,4.6,4.6,10,0.00,CLR,,0.00,WeatherDisplay:10.37,2013-04-13 00:28:00,
2013-04-12 18:29:00,75.0,16.9,29.80,NW,316,4.6,4.6,11,0.00,CLR,,0.00,WeatherDisplay:10.37,2013-04-13 00:29:00,
2013-04-12 18:31:00,75.1,17.0,29.80,NW,307,3.4,3.4,11,0.00,CLR,,0.00,WeatherDisplay:10.37,2013-04-13 00:31:00,
2013-04-12 18:33:00,75.1,14.8,29.80,WSW,256,3.4,3.4,10,0.00,CLR,,0.00,WeatherDisplay:10.37,2013-04-13 00:33:00,
2013-04-12 18:34:00,75.1,17.0,29.80,NW,305,3.4,3.4,11,0.00,CLR,,0.00,WeatherDisplay:10.37,2013-04-13 00:34:00,
2013-04-12 18:36:00,75.1,14.8,29.79,WNW,285,3.4,3.4,10,0.00,CLR,,0.00,WeatherDisplay:10.37,2013-04-13 00:36:00,
2013-04-12 18:38:00,75.2,17.0,29.79,NNW,337,3.4,3.4,11,0.00,CLR,,0.00,WeatherDisplay:10.37,2013-04-13 00:38:00,
2013-04-12 18:39:00,75.2,14.8,29.79,West,270,3.4,3.4,10,0.00,CLR,,0.00,WeatherDisplay:10.37,2013-04-13 00:39:00,
2013-04-12 18:41:00,75.3,17.1,29.79,West,274,2.3,2.3,11,0.00,CLR,,0.00,WeatherDisplay:10.37,2013-04-13 00:41:00,
2013-04-12 18:43:00,75.4,15.0,29.80,WNW,289,3.4,3.4,10,0.00,CLR,,0.00,WeatherDisplay:10.37,2013-04-13 00:43:00,
2013-04-12 18:44:00,75.3,14.9,29.79,WNW,299,2.3,2.3,10,0.00,CLR,,0.00,WeatherDisplay:10.37,2013-04-13 00:44:00,
2013-04-12 18:45:00,75.3,14.9,29.79,WNW,293,2.3,2.3,10,0.00,CLR,,0.00,WeatherDisplay:10.37,2013-04-13 00:45:00,
2013-04-12 18:46:00,75.3,14.9,29.79,WNW,293,1.1,1.1,10,0.00,CLR,,0.00,WeatherDisplay:10.37,2013-04-13 00:46:00,
2013-04-12 18:48:00,75.5,17.3,29.79,SW,219,1.1,0.0,11,0.00,CLR,,0.00,WeatherDisplay:10.37,2013-04-13 00:48:00,
2013-04-12 18:49:00,75.6,15.1,29.79,SW,217,0.0,0.0,10,0.00,CLR,,0.00,WeatherDisplay:10.37,2013-04-13 00:49:00,
2013-04-12 18:50:00,75.7,15.2,29.79,SW,224,1.1,0.0,10,0.00,CLR,,0.00,WeatherDisplay:10.37,2013-04-13 00:50:00,
2013-04-12 18:51:00,75.7,15.2,29.79,SW,224,0.0,0.0,10,0.00,CLR,,0.00,WeatherDisplay:10.37,2013-04-13 00:51:00,
2013-04-12 18:53:00,75.7,15.2,29.79,SW,236,0.0,1.0,10,0.00,CLR,,0.00,WeatherDisplay:10.37,2013-04-13 00:53:00,
2013-04-12 18:54:00,75.5,15.1,29.79,SW,224,1.1,0.0,10,0.00,CLR,,0.00,WeatherDisplay:10.37,2013-04-13 00:54:00,
2013-04-12 18:55:00,75.4,15.0,29.79,SW,224,0.0,0.0,10,0.00,CLR,,0.00,WeatherDisplay:10.37,2013-04-13 00:55:00,
2013-04-12 18:57:00,75.2,14.8,29.80,SW,224,0.0,0.0,10,0.00,CLR,,0.00,WeatherDisplay:10.37,2013-04-13 00:57:00,
2013-04-12 18:58:00,75.1,14.8,29.80,SW,225,1.1,1.1,10,0.00,CLR,,0.00,WeatherDisplay:10.37,2013-04-13 00:58:00,
2013-04-12 18:59:00,75.0,16.9,29.79,SW,222,1.0,0.0,11,0.00,CLR,,0.00,WeatherDisplay:10.37,2013-04-13 00:59:00,
2013-04-12 19:01:00,74.9,16.8,29.79,West,276,3.0,3.0,11,0.00,CLR,,0.00,WeatherDisplay:10.37,2013-04-13 01:01:00,
2013-04-12 19:02:00,74.8,14.5,29.79,WNW,302,6.9,6.9,10,0.00,CLR,,0.00,WeatherDisplay:10.37,2013-04-13 01:02:00,
2013-04-12 19:03:00,74.7,16.6,29.79,SW,215,4.6,4.6,11,0.00,CLR,,0.00,WeatherDisplay:10.37,2013-04-13 01:03:00,
2013-04-12 19:05:00,74.5,16.5,29.79,WNW,282,2.3,2.3,11,0.00,CLR,,0.00,WeatherDisplay:10.37,2013-04-13 01:05:00,
2013-04-12 19:06:00,74.4,16.4,29.79,SW,222,3.0,3.0,11,0.00,CLR,,0.00,WeatherDisplay:10.37,2013-04-13 01:06:00,
2013-04-12 19:07:00,74.3,16.3,29.79,South,184,3.4,3.4,11,0.00,CLR,,0.00,WeatherDisplay:10.37,2013-04-13 01:07:00,
2013-04-12 19:08:00,74.2,16.3,29.79,WSW,238,4.0,4.0,11,0.00,CLR,,0.00,WeatherDisplay:10.37,2013-04-13 01:08:00,
2013-04-12 19:10:00,74.0,16.1,29.79,SSW,209,3.4,3.4,11,0.00,CLR,,0.00,WeatherDisplay:10.37,2013-04-13 01:10:00,
2013-04-12 19:11:00,73.9,16.0,29.79,West,273,3.4,3.4,11,0.00,CLR,,0.00,WeatherDisplay:10.37,2013-04-13 01:11:00,
2013-04-12 19:12:00,73.8,15.9,29.79,WNW,283,3.4,3.4,11,0.00,CLR,,0.00,WeatherDisplay:10.37,2013-04-13 01:12:00,
2013-04-12 19:13:00,73.6,15.8,29.79,SW,221,1.1,1.1,11,0.00,CLR,,0.00,WeatherDisplay:10.37,2013-04-13 01:13:00,
2013-04-12 19:15:00,73.5,15.7,29.79,SW,226,2.3,2.3,11,0.00,CLR,,0.00,WeatherDisplay:10.37,2013-04-13 01:15:00,
2013-04-12 19:16:00,73.4,15.6,29.79,WNW,302,2.3,2.3,11,0.00,CLR,,0.00,WeatherDisplay:10.37,2013-04-13 01:16:00,
2013-04-12 19:17:00,73.3,15.6,29.79,West,278,1.1,1.1,11,0.00,CLR,,0.00,WeatherDisplay:10.37,2013-04-13 01:17:00,
2013-04-12 19:18:00,73.2,15.5,29.79,West,270,1.1,1.1,11,0.00,CLR,,0.00,WeatherDisplay:10.37,2013-04-13 01:18:00,
2013-04-12 19:20:00,73.0,15.3,29.79,WSW,243,1.0,0.0,11,0.00,CLR,,0.00,WeatherDisplay:10.37,2013-04-13 01:20:00,
2013-04-12 19:21:00,72.9,15.3,29.79,West,267,2.3,2.3,11,0.00,CLR,,0.00,WeatherDisplay:10.37,2013-04-13 01:21:00,
2013-04-12 19:22:00,72.8,15.2,29.79,West,265,2.3,2.3,11,0.00,CLR,,0.00,WeatherDisplay:10.37,2013-04-13 01:22:00,
2013-04-12 19:24:00,72.7,15.1,29.79,West,263,2.3,2.3,11,0.00,CLR,,0.00,WeatherDisplay:10.37,2013-04-13 01:24:00,
2013-04-12 19:25:00,72.5,14.9,29.79,West,273,0.0,0.0,11,0.00,CLR,,0.00,WeatherDisplay:10.37,2013-04-13 01:25:00,
2013-04-12 19:27:00,72.4,16.9,29.79,West,273,0.0,0.0,12,0.00,CLR,,0.00,WeatherDisplay:10.37,2013-04-13 01:27:00,
2013-04-12 19:29:00,72.2,16.7,29.79,West,266,0.0,0.0,12,0.00,CLR,,0.00,WeatherDisplay:10.37,2013-04-13 01:29:00,
2013-04-12 19:31:00,72.1,16.6,29.79,West,267,1.1,1.1,12,0.00,CLR,,0.00,WeatherDisplay:10.37,2013-04-13 01:31:00,
2013-04-12 19:32:00,72.0,14.6,29.79,WNW,302,1.1,1.1,11,0.00,CLR,,0.00,WeatherDisplay:10.37,2013-04-13 01:32:00,
2013-04-12 19:34:00,72.0,16.6,29.79,WNW,287,3.4,3.4,12,0.00,CLR,,0.00,WeatherDisplay:10.37,2013-04-13 01:34:00,
2013-04-12 19:36:00,72.0,16.6,29.80,WNW,302,4.6,4.6,12,0.00,CLR,,0.00,WeatherDisplay:10.37,2013-04-13 01:36:00,
2013-04-12 19:37:00,72.0,16.6,29.80,NW,309,1.1,1.1,12,0.00,CLR,,0.00,WeatherDisplay:10.37,2013-04-13 01:37:00,
2013-04-12 19:39:00,71.9,16.5,29.80,NW,309,0.0,0.0,12,0.00,CLR,,0.00,WeatherDisplay:10.37,2013-04-13 01:39:00,
2013-04-12 19:41:00,71.8,16.4,29.80,NW,309,3.0,3.0,12,0.00,CLR,,0.00,WeatherDisplay:10.37,2013-04-13 01:41:00,
2013-04-12 19:42:00,71.8,16.4,29.80,WNW,300,3.4,3.4,12,0.00,CLR,,0.00,WeatherDisplay:10.37,2013-04-13 01:42:00,
2013-04-12 19:44:00,71.8,16.4,29.80,West,281,3.4,3.4,12,0.00,CLR,,0.00,WeatherDisplay:10.37,2013-04-13 01:44:00,
2013-04-12 19:47:00,71.7,16.3,29.80,NW,323,2.3,2.3,12,0.00,CLR,,0.00,WeatherDisplay:10.37,2013-04-13 01:47:00,
2013-04-12 19:49:00,71.6,16.2,29.80,WNW,287,3.4,3.4,12,0.00,CLR,,0.00,WeatherDisplay:10.37,2013-04-13 01:49:00,
2013-04-12 19:52:00,71.5,16.2,29.80,NW,316,1.1,1.1,12,0.00,CLR,,0.00,WeatherDisplay:10.37,2013-04-13 01:52:00,
2013-04-12 19:53:00,71.5,16.2,29.80,NW,305,2.3,2.3,12,0.00,CLR,,0.00,WeatherDisplay:10.37,2013-04-13 01:53:00,
2013-04-12 19:54:00,71.4,16.1,29.80,NW,325,1.1,1.1,12,0.00,CLR,,0.00,WeatherDisplay:10.37,2013-04-13 01:54:00,
2013-04-12 19:57:00,71.3,16.0,29.80,NNW,332,2.3,2.3,12,0.00,CLR,,0.00,WeatherDisplay:10.37,2013-04-13 01:57:00,
2013-04-12 19:58:00,71.2,15.9,29.80,NW,321,1.1,1.1,12,0.00,CLR,,0.00,WeatherDisplay:10.37,2013-04-13 01:58:00,
2013-04-12 19:59:00,71.2,15.9,29.80,NW,309,3.4,3.4,12,0.00,CLR,,0.00,WeatherDisplay:10.37,2013-04-13 01:59:00,
2013-04-12 20:02:00,71.1,11.7,29.80,NW,316,1.1,1.1,10,0.00,CLR,,0.00,WeatherDisplay:10.37,2013-04-13 02:02:00,
2013-04-12 20:03:00,71.1,11.7,29.80,NW,314,1.1,0.0,10,0.00,CLR,,0.00,WeatherDisplay:10.37,2013-04-13 02:03:00,
2013-04-12 20:04:00,71.1,11.7,29.80,WNW,299,1.1,0.0,10,0.00,CLR,,0.00,WeatherDisplay:10.37,2013-04-13 02:04:00,
2013-04-12 20:07:00,71.0,11.6,29.80,WNW,295,1.1,1.1,10,0.00,CLR,,0.00,WeatherDisplay:10.37,2013-04-13 02:07:00,
2013-04-12 20:08:00,71.0,11.6,29.80,WNW,295,1.1,0.0,10,0.00,CLR,,0.00,WeatherDisplay:10.37,2013-04-13 02:08:00,
2013-04-12 20:09:00,70.9,11.5,29.80,WNW,292,0.0,0.0,10,0.00,CLR,,0.00,WeatherDisplay:10.37,2013-04-13 02:09:00,
2013-04-12 20:12:00,70.7,11.4,29.80,NW,314,2.3,2.3,10,0.00,CLR,,0.00,WeatherDisplay:10.37,2013-04-13 02:12:00,
2013-04-12 20:13:00,70.6,11.3,29.80,NW,305,2.3,2.3,10,0.00,CLR,,0.00,WeatherDisplay:10.37,2013-04-13 02:13:00,
2013-04-12 20:14:00,70.6,11.3,29.80,NW,304,1.1,1.1,10,0.00,CLR,,0.00,WeatherDisplay:10.37,2013-04-13 02:14:00,
2013-04-12 20:15:00,70.6,11.3,29.80,WNW,287,2.3,2.3,10,0.00,CLR,,0.00,WeatherDisplay:10.37,2013-04-13 02:15:00,
2013-04-12 20:18:00,70.5,11.2,29.80,WNW,287,0.0,0.0,10,0.00,CLR,,0.00,WeatherDisplay:10.37,2013-04-13 02:18:00,
2013-04-12 20:19:00,70.3,11.1,29.80,NNW,331,1.1,0.0,10,0.00,CLR,,0.00,WeatherDisplay:10.37,2013-04-13 02:19:00,
2013-04-12 20:21:00,70.2,11.0,29.80,North,355,0.0,0.0,10,0.00,CLR,,0.00,WeatherDisplay:10.37,2013-04-13 02:21:00,
2013-04-12 20:23:00,70.2,11.0,29.80,East,86,1.1,1.1,10,0.00,CLR,,0.00,WeatherDisplay:10.37,2013-04-13 02:23:00,
2013-04-12 20:24:00,70.2,11.0,29.80,NE,51,0.0,0.0,10,0.00,CLR,,0.00,WeatherDisplay:10.37,2013-04-13 02:24:00,
2013-04-12 20:26:00,70.2,11.0,29.80,NE,53,1.1,0.0,10,0.00,CLR,,0.00,WeatherDisplay:10.37,2013-04-13 02:26:00,
2013-04-12 20:28:00,70.0,10.9,29.80,NE,53,1.1,1.1,10,0.00,CLR,,0.00,WeatherDisplay:10.37,2013-04-13 02:28:00,
2013-04-12 20:29:00,69.9,10.8,29.80,NE,54,0.0,0.0,10,0.00,CLR,,0.00,WeatherDisplay:10.37,2013-04-13 02:29:00,
2013-04-12 20:31:00,69.8,10.7,29.81,NE,56,0.0,0.0,10,0.00,CLR,,0.00,WeatherDisplay:10.37,2013-04-13 02:31:00,
2013-04-12 20:33:00,69.6,10.5,29.81,NNE,25,0.0,0.0,10,0.00,CLR,,0.00,WeatherDisplay:10.37,2013-04-13 02:33:00,
2013-04-12 20:34:00,69.6,10.5,29.81,NNE,25,0.0,0.0,10,0.00,CLR,,0.00,WeatherDisplay:10.37,2013-04-13 02:34:00,
2013-04-12 20:36:00,69.4,10.4,29.81,NNE,26,1.1,0.0,10,0.00,CLR,,0.00,WeatherDisplay:10.37,2013-04-13 02:36:00,
2013-04-12 20:38:00,69.4,12.5,29.81,NNE,29,0.0,2.0,11,0.00,CLR,,0.00,WeatherDisplay:10.37,2013-04-13 02:38:00,
2013-04-12 20:39:00,69.3,10.3,29.81,NNE,28,2.3,2.3,10,0.00,CLR,,0.00,WeatherDisplay:10.37,2013-04-13 02:39:00,
2013-04-12 20:41:00,69.3,10.3,29.81,NNE,30,1.0,1.0,10,0.00,CLR,,0.00,WeatherDisplay:10.37,2013-04-13 02:41:00,
2013-04-12 20:44:00,69.3,10.3,29.81,NNE,20,0.0,0.0,10,0.00,CLR,,0.00,WeatherDisplay:10.37,2013-04-13 02:44:00,
2013-04-12 20:46:00,69.2,10.2,29.81,NNE,20,1.1,0.0,10,0.00,CLR,,0.00,WeatherDisplay:10.37,2013-04-13 02:46:00,
2013-04-12 20:49:00,69.2,10.2,29.81,NNE,20,1.1,1.1,10,0.00,CLR,,0.00,WeatherDisplay:10.37,2013-04-13 02:49:00,
2013-04-12 20:51:00,69.2,17.9,29.81,NE,36,1.1,0.0,14,0.00,CLR,,0.00,WeatherDisplay:10.37,2013-04-13 02:51:00,
2013-04-12 20:54:00,69.0,17.8,29.81,East,80,2.0,2.0,14,0.00,CLR,,0.00,WeatherDisplay:10.37,2013-04-13 02:54:00,
2013-04-12 20:55:00,69.0,17.8,29.81,NNE,27,4.6,4.6,14,0.00,CLR,,0.00,WeatherDisplay:10.37,2013-04-13 02:55:00,
2013-04-12 20:56:00,69.0,19.4,29.81,ENE,73,3.4,3.4,15,0.00,CLR,,0.00,WeatherDisplay:10.37,2013-04-13 02:56:00,
2013-04-12 20:59:00,69.1,19.5,29.81,NE,47,3.4,3.4,15,0.00,CLR,,0.00,WeatherDisplay:10.37,2013-04-13 02:59:00,
2013-04-12 21:00:00,69.1,19.5,29.81,East,98,3.4,3.4,15,0.00,CLR,,0.00,WeatherDisplay:10.37,2013-04-13 03:00:00,
2013-04-12 21:02:00,69.1,19.5,29.81,ENE,73,6.9,6.9,15,0.00,CLR,,0.00,WeatherDisplay:10.37,2013-04-13 03:02:00,
2013-04-12 21:05:00,69.1,19.5,29.81,ENE,75,10.3,10.3,15,0.00,CLR,,0.00,WeatherDisplay:10.37,2013-04-13 03:05:00,
2013-04-12 21:07:00,69.1,19.5,29.81,East,90,10.3,10.3,15,0.00,CLR,,0.00,WeatherDisplay:10.37,2013-04-13 03:07:00,
2013-04-12 21:10:00,69.1,21.0,29.82,ESE,113,4.6,4.6,16,0.00,CLR,,0.00,WeatherDisplay:10.37,2013-04-13 03:10:00,
2013-04-12 21:12:00,69.0,19.4,29.82,NE,36,6.0,6.0,15,0.00,CLR,,0.00,WeatherDisplay:10.37,2013-04-13 03:12:00,
2013-04-12 21:15:00,69.0,20.9,29.82,East,93,5.8,5.8,16,0.00,CLR,,0.00,WeatherDisplay:10.37,2013-04-13 03:15:00,
2013-04-12 21:17:00,68.9,20.8,29.82,NE,44,5.8,5.8,16,0.00,CLR,,0.00,WeatherDisplay:10.37,2013-04-13 03:17:00,
2013-04-12 21:20:00,68.9,20.8,29.82,SSW,211,8.1,8.1,16,0.00,CLR,,0.00,WeatherDisplay:10.37,2013-04-13 03:20:00,
2013-04-12 21:22:00,68.8,20.7,29.82,East,79,3.4,3.4,16,0.00,CLR,,0.00,WeatherDisplay:10.37,2013-04-13 03:22:00,
2013-04-12 21:25:00,68.9,20.8,29.82,East,93,6.9,6.9,16,0.00,CLR,,0.00,WeatherDisplay:10.37,2013-04-13 03:25:00,
2013-04-12 21:27:00,68.9,20.8,29.82,NNE,15,6.9,6.9,16,0.00,CLR,,0.00,WeatherDisplay:10.37,2013-04-13 03:27:00,
2013-04-12 21:30:00,68.8,20.7,29.82,NE,37,9.2,9.2,16,0.00,CLR,,0.00,WeatherDisplay:10.37,2013-04-13 03:30:00,
2013-04-12 21:33:00,68.8,20.7,29.82,East,82,6.9,6.9,16,0.00,CLR,,0.00,WeatherDisplay:10.37,2013-04-13 03:33:00,
2013-04-12 21:35:00,68.7,20.6,29.83,East,88,6.9,6.9,16,0.00,CLR,,0.00,WeatherDisplay:10.37,2013-04-13 03:35:00,
2013-04-12 21:36:00,68.7,20.6,29.83,NE,37,5.8,5.8,16,0.00,CLR,,0.00,WeatherDisplay:10.37,2013-04-13 03:36:00,
2013-04-12 21:38:00,68.6,20.6,29.82,SE,146,6.9,6.9,16,0.00,CLR,,0.00,WeatherDisplay:10.37,2013-04-13 03:38:00,
2013-04-12 21:40:00,68.6,20.6,29.83,SW,225,9.2,9.2,16,0.00,CLR,,0.00,WeatherDisplay:10.37,2013-04-13 03:40:00,
2013-04-12 21:41:00,68.5,20.5,29.83,West,275,4.6,4.6,16,0.00,CLR,,0.00,WeatherDisplay:10.37,2013-04-13 03:41:00,
2013-04-12 21:43:00,68.4,20.4,29.83,ENE,68,3.0,9.0,16,0.00,CLR,,0.00,WeatherDisplay:10.37,2013-04-13 03:43:00,
2013-04-12 21:45:00,68.4,20.4,29.83,SE,136,5.8,5.8,16,0.00,CLR,,0.00,WeatherDisplay:10.37,2013-04-13 03:45:00,
2013-04-12 21:46:00,68.4,20.4,29.83,NE,47,9.2,9.2,16,0.00,CLR,,0.00,WeatherDisplay:10.37,2013-04-13 03:46:00,
2013-04-12 21:48:00,68.5,20.5,29.83,East,97,5.8,5.8,16,0.00,CLR,,0.00,WeatherDisplay:10.37,2013-04-13 03:48:00,
2013-04-12 21:50:00,68.5,20.5,29.83,ENE,70,10.3,10.3,16,0.00,CLR,,0.00,WeatherDisplay:10.37,2013-04-13 03:50:00,
2013-04-12 21:51:00,68.5,20.5,29.83,ENE,76,6.9,6.9,16,0.00,CLR,,0.00,WeatherDisplay:10.37,2013-04-13 03:51:00,
2013-04-12 21:53:00,68.4,20.4,29.83,East,79,3.0,10.0,16,0.00,CLR,,0.00,WeatherDisplay:10.37,2013-04-13 03:53:00,
2013-04-12 21:55:00,68.4,20.4,29.83,NE,47,5.0,5.0,16,0.00,CLR,,0.00,WeatherDisplay:10.37,2013-04-13 03:55:00,
2013-04-12 21:56:00,68.4,20.4,29.83,NE,51,8.1,8.1,16,0.00,CLR,,0.00,WeatherDisplay:10.37,2013-04-13 03:56:00,
2013-04-12 21:59:00,68.4,20.4,29.83,NNE,25,4.0,4.0,16,0.00,CLR,,0.00,WeatherDisplay:10.37,2013-04-13 03:59:00,
2013-04-12 22:00:00,68.4,20.4,29.83,SE,135,5.0,5.0,16,0.00,CLR,,0.00,WeatherDisplay:10.37,2013-04-13 04:00:00,
2013-04-12 22:05:00,68.4,20.4,29.83,SE,134,6.9,6.9,16,0.00,CLR,,0.00,WeatherDisplay:10.37,2013-04-13 04:05:00,
2013-04-12 22:10:00,68.3,20.3,29.83,WNW,294,4.6,4.6,16,0.00,CLR,,0.00,WeatherDisplay:10.37,2013-04-13 04:10:00,
2013-04-12 22:15:00,68.3,20.3,29.84,ESE,103,4.0,4.0,16,0.00,CLR,,0.00,WeatherDisplay:10.37,2013-04-13 04:15:00,
2013-04-12 22:20:00,68.3,20.3,29.84,NNE,20,6.0,6.0,16,0.00,CLR,,0.00,WeatherDisplay:10.37,2013-04-13 04:20:00,
2013-04-12 22:25:00,68.3,20.3,29.84,NNE,20,5.8,5.8,16,0.00,CLR,,0.00,WeatherDisplay:10.37,2013-04-13 04:25:00,
2013-04-12 22:26:00,68.2,20.2,29.84,NE,52,4.6,4.6,16,0.00,CLR,,0.00,WeatherDisplay:10.37,2013-04-13 04:26:00,
2013-04-12 22:30:00,68.3,20.3,29.84,North,11,8.1,8.1,16,0.00,CLR,,0.00,WeatherDisplay:10.37,2013-04-13 04:30:00,
2013-04-12 22:31:00,68.3,20.3,29.84,NE,39,5.8,5.8,16,0.00,CLR,,0.00,WeatherDisplay:10.37,2013-04-13 04:31:00,
2013-04-12 22:35:00,68.3,20.3,29.84,NNW,333,4.6,4.6,16,0.00,CLR,,0.00,WeatherDisplay:10.37,2013-04-13 04:35:00,
2013-04-12 22:36:00,68.3,20.3,29.84,ESE,105,4.6,4.6,16,0.00,CLR,,0.00,WeatherDisplay:10.37,2013-04-13 04:36:00,
2013-04-12 22:40:00,68.2,20.2,29.84,ENE,72,3.4,3.4,16,0.00,CLR,,0.00,WeatherDisplay:10.37,2013-04-13 04:40:00,
2013-04-12 22:41:00,68.2,20.2,29.84,ESE,105,3.4,3.4,16,0.00,CLR,,0.00,WeatherDisplay:10.37,2013-04-13 04:41:00,
2013-04-12 22:46:00,68.2,20.2,29.84,East,85,5.8,5.8,16,0.00,CLR,,0.00,WeatherDisplay:10.37,2013-04-13 04:46:00,
2013-04-12 22:51:00,68.2,20.2,29.84,NNE,25,6.9,6.9,16,0.00,CLR,,0.00,WeatherDisplay:10.37,2013-04-13 04:51:00,
2013-04-12 22:56:00,68.2,20.2,29.84,NNE,23,5.0,5.0,16,0.00,CLR,,0.00,WeatherDisplay:10.37,2013-04-13 04:56:00,
2013-04-12 22:57:00,68.2,20.2,29.84,NNW,348,4.6,4.6,16,0.00,CLR,,0.00,WeatherDisplay:10.37,2013-04-13 04:57:00,
2013-04-12 23:01:00,68.2,20.2,29.84,ESE,115,5.8,5.8,16,0.00,CLR,,0.00,WeatherDisplay:10.37,2013-04-13 05:01:00,
2013-04-12 23:02:00,68.2,20.2,29.84,NNE,25,3.4,3.4,16,0.00,CLR,,0.00,WeatherDisplay:10.37,2013-04-13 05:02:00,
2013-04-12 23:06:00,68.3,20.3,29.84,ENE,70,4.6,4.6,16,0.00,CLR,,0.00,WeatherDisplay:10.37,2013-04-13 05:06:00,
2013-04-12 23:07:00,68.3,20.3,29.84,NE,40,3.4,3.4,16,0.00,CLR,,0.00,WeatherDisplay:10.37,2013-04-13 05:07:00,
2013-04-12 23:11:00,68.3,20.3,29.84,NE,56,2.3,2.3,16,0.00,CLR,,0.00,WeatherDisplay:10.37,2013-04-13 05:11:00,
2013-04-12 23:12:00,68.3,20.3,29.84,East,83,6.0,6.0,16,0.00,CLR,,0.00,WeatherDisplay:10.37,2013-04-13 05:12:00,
2013-04-12 23:16:00,68.4,20.4,29.84,East,88,9.2,9.2,16,0.00,CLR,,0.00,WeatherDisplay:10.37,2013-04-13 05:16:00,
2013-04-12 23:17:00,68.4,20.4,29.84,SSE,153,9.2,9.2,16,0.00,CLR,,0.00,WeatherDisplay:10.37,2013-04-13 05:17:00,
2013-04-12 23:18:00,68.4,20.4,29.84,NE,44,6.9,6.9,16,0.00,CLR,,0.00,WeatherDisplay:10.37,2013-04-13 05:18:00,
2013-04-12 23:22:00,68.3,20.3,29.84,East,82,7.0,7.0,16,0.00,CLR,,0.00,WeatherDisplay:10.37,2013-04-13 05:22:00,
2013-04-12 23:23:00,68.3,20.3,29.84,East,79,9.2,9.2,16,0.00,CLR,,0.00,WeatherDisplay:10.37,2013-04-13 05:23:00,
2013-04-12 23:27:00,68.3,20.3,29.84,East,82,10.3,10.3,16,0.00,CLR,,0.00,WeatherDisplay:10.37,2013-04-13 05:27:00,
2013-04-12 23:28:00,68.3,20.3,29.84,NE,56,6.9,6.9,16,0.00,CLR,,0.00,WeatherDisplay:10.37,2013-04-13 05:28:00,
2013-04-12 23:32:00,68.4,20.4,29.84,ENE,60,9.2,9.2,16,0.00,CLR,,0.00,WeatherDisplay:10.37,2013-04-13 05:32:00,
2013-04-12 23:33:00,68.4,20.4,29.84,ENE,77,5.8,5.8,16,0.00,CLR,,0.00,WeatherDisplay:10.37,2013-04-13 05:33:00,
2013-04-12 23:38:00,68.4,20.4,29.85,SSE,155,5.8,5.8,16,0.00,CLR,,0.00,WeatherDisplay:10.37,2013-04-13 05:38:00,
2013-04-12 23:43:00,68.4,20.4,29.85,East,91,9.2,9.2,16,0.00,CLR,,0.00,WeatherDisplay:10.37,2013-04-13 05:43:00,
2013-04-12 23:48:00,68.5,20.5,29.85,East,89,7.0,7.0,16,0.00,CLR,,0.00,WeatherDisplay:10.37,2013-04-13 05:48:00,
2013-04-12 23:53:00,68.5,20.5,29.85,East,80,9.2,9.2,16,0.00,CLR,,0.00,WeatherDisplay:10.37,2013-04-13 05:53:00,
2013-04-12 23:58:00,68.7,19.1,29.85,ENE,76,9.2,9.2,15,0.00,CLR,,0.00,WeatherDisplay:10.37,2013-04-13 05:58:00,